<?xml version="1.0" encoding="UTF-8" standalone="no" ?>
<gpx xmlns="http://www.topografix.com/GPX/1/1" xmlns:xsi="http://www.w3.org/2001/XMLSchema-instance" xsi:schemaLocation="http://www.topografix.com/GPX/1/1 http://www.topografix.com/GPX/1/1/gpx.xsd" version="1.1" creator="VisuGPX - https://www.visugpx.com">
  <metadata>
    <name>Boucle Allemond-Huez</name>
    <desc><![CDATA[Superbe descente mais montée trop dure]]></desc>
  </metadata>
  <trk>
    <name><![CDATA[20110910VTTHuez]]></name>
    <trkseg>
      <trkpt lat="45.12385" lon="6.02727">
        <ele>731</ele>
        <time>2011-09-10T09:04:35Z</time>
      </trkpt>
      <trkpt lat="45.12385" lon="6.02729">
        <ele>726</ele>
        <time>2011-09-10T09:04:36Z</time>
      </trkpt>
      <trkpt lat="45.12377" lon="6.02737">
        <ele>741</ele>
        <time>2011-09-10T09:04:52Z</time>
      </trkpt>
      <trkpt lat="45.12379" lon="6.02742">
        <ele>732</ele>
        <time>2011-09-10T09:07:41Z</time>
      </trkpt>
      <trkpt lat="45.12385" lon="6.02744">
        <ele>732</ele>
        <time>2011-09-10T09:07:51Z</time>
      </trkpt>
      <trkpt lat="45.12426" lon="6.02849">
        <ele>730</ele>
        <time>2011-09-10T09:08:15Z</time>
      </trkpt>
      <trkpt lat="45.12493" lon="6.03012">
        <ele>731</ele>
        <time>2011-09-10T09:08:47Z</time>
      </trkpt>
      <trkpt lat="45.12578" lon="6.03218">
        <ele>731</ele>
        <time>2011-09-10T09:09:27Z</time>
      </trkpt>
      <trkpt lat="45.12645" lon="6.0339">
        <ele>732</ele>
        <time>2011-09-10T09:09:57Z</time>
      </trkpt>
      <trkpt lat="45.12707" lon="6.03555">
        <ele>732</ele>
        <time>2011-09-10T09:10:27Z</time>
      </trkpt>
      <trkpt lat="45.12784" lon="6.0374">
        <ele>733</ele>
        <time>2011-09-10T09:11:01Z</time>
      </trkpt>
      <trkpt lat="45.12789" lon="6.03752">
        <ele>734</ele>
        <time>2011-09-10T09:11:03Z</time>
      </trkpt>
      <trkpt lat="45.12787" lon="6.03782">
        <ele>733</ele>
        <time>2011-09-10T09:11:08Z</time>
      </trkpt>
      <trkpt lat="45.12784" lon="6.03819">
        <ele>735</ele>
        <time>2011-09-10T09:11:14Z</time>
      </trkpt>
      <trkpt lat="45.1283" lon="6.03943">
        <ele>737</ele>
        <time>2011-09-10T09:11:36Z</time>
      </trkpt>
      <trkpt lat="45.12883" lon="6.04055">
        <ele>737</ele>
        <time>2011-09-10T09:12:02Z</time>
      </trkpt>
      <trkpt lat="45.1292" lon="6.04151">
        <ele>738</ele>
        <time>2011-09-10T09:12:26Z</time>
      </trkpt>
      <trkpt lat="45.12915" lon="6.04233">
        <ele>738</ele>
        <time>2011-09-10T09:12:44Z</time>
      </trkpt>
      <trkpt lat="45.12855" lon="6.04338">
        <ele>745</ele>
        <time>2011-09-10T09:13:18Z</time>
      </trkpt>
      <trkpt lat="45.12804" lon="6.04398">
        <ele>748</ele>
        <time>2011-09-10T09:13:45Z</time>
      </trkpt>
      <trkpt lat="45.12802" lon="6.044">
        <ele>749</ele>
        <time>2011-09-10T09:13:46Z</time>
      </trkpt>
      <trkpt lat="45.12821" lon="6.04426">
        <ele>750</ele>
        <time>2011-09-10T09:13:57Z</time>
      </trkpt>
      <trkpt lat="45.12825" lon="6.04424">
        <ele>750</ele>
        <time>2011-09-10T09:13:59Z</time>
      </trkpt>
      <trkpt lat="45.1287" lon="6.04362">
        <ele>755</ele>
        <time>2011-09-10T09:14:22Z</time>
      </trkpt>
      <trkpt lat="45.12922" lon="6.04291">
        <ele>762</ele>
        <time>2011-09-10T09:14:52Z</time>
      </trkpt>
      <trkpt lat="45.12984" lon="6.04207">
        <ele>770</ele>
        <time>2011-09-10T09:15:28Z</time>
      </trkpt>
      <trkpt lat="45.13042" lon="6.0413">
        <ele>774</ele>
        <time>2011-09-10T09:16:02Z</time>
      </trkpt>
      <trkpt lat="45.13057" lon="6.04087">
        <ele>776</ele>
        <time>2011-09-10T09:16:16Z</time>
      </trkpt>
      <trkpt lat="45.13074" lon="6.04102">
        <ele>778</ele>
        <time>2011-09-10T09:16:26Z</time>
      </trkpt>
      <trkpt lat="45.13068" lon="6.04115">
        <ele>779</ele>
        <time>2011-09-10T09:16:29Z</time>
      </trkpt>
      <trkpt lat="45.13018" lon="6.04199">
        <ele>782</ele>
        <time>2011-09-10T09:16:49Z</time>
      </trkpt>
      <trkpt lat="45.12924" lon="6.04353">
        <ele>783</ele>
        <time>2011-09-10T09:17:20Z</time>
      </trkpt>
      <trkpt lat="45.12791" lon="6.0457">
        <ele>782</ele>
        <time>2011-09-10T09:18:04Z</time>
      </trkpt>
      <trkpt lat="45.12793" lon="6.04566">
        <ele>782</ele>
        <time>2011-09-10T09:18:10Z</time>
      </trkpt>
      <trkpt lat="45.12795" lon="6.04568">
        <ele>782</ele>
        <time>2011-09-10T09:18:41Z</time>
      </trkpt>
      <trkpt lat="45.12797" lon="6.04557">
        <ele>782</ele>
        <time>2011-09-10T09:19:46Z</time>
      </trkpt>
      <trkpt lat="45.128" lon="6.04557">
        <ele>782</ele>
        <time>2011-09-10T09:20:05Z</time>
      </trkpt>
      <trkpt lat="45.12823" lon="6.04594">
        <ele>782</ele>
        <time>2011-09-10T09:20:20Z</time>
      </trkpt>
      <trkpt lat="45.12879" lon="6.04679">
        <ele>782</ele>
        <time>2011-09-10T09:20:41Z</time>
      </trkpt>
      <trkpt lat="45.12984" lon="6.04825">
        <ele>782</ele>
        <time>2011-09-10T09:21:16Z</time>
      </trkpt>
      <trkpt lat="45.13083" lon="6.04847">
        <ele>782</ele>
        <time>2011-09-10T09:21:36Z</time>
      </trkpt>
      <trkpt lat="45.13242" lon="6.04885">
        <ele>782</ele>
        <time>2011-09-10T09:22:08Z</time>
      </trkpt>
      <trkpt lat="45.13405" lon="6.04924">
        <ele>785</ele>
        <time>2011-09-10T09:22:41Z</time>
      </trkpt>
      <trkpt lat="45.13628" lon="6.04967">
        <ele>785</ele>
        <time>2011-09-10T09:23:27Z</time>
      </trkpt>
      <trkpt lat="45.13632" lon="6.04967">
        <ele>784</ele>
        <time>2011-09-10T09:23:28Z</time>
      </trkpt>
      <trkpt lat="45.13688" lon="6.04922">
        <ele>785</ele>
        <time>2011-09-10T09:23:43Z</time>
      </trkpt>
      <trkpt lat="45.13694" lon="6.0492">
        <ele>785</ele>
        <time>2011-09-10T09:23:45Z</time>
      </trkpt>
      <trkpt lat="45.1369" lon="6.04928">
        <ele>786</ele>
        <time>2011-09-10T09:23:50Z</time>
      </trkpt>
      <trkpt lat="45.13645" lon="6.04952">
        <ele>787</ele>
        <time>2011-09-10T09:24:10Z</time>
      </trkpt>
      <trkpt lat="45.13587" lon="6.05016">
        <ele>787</ele>
        <time>2011-09-10T09:24:42Z</time>
      </trkpt>
      <trkpt lat="45.13572" lon="6.05025">
        <ele>787</ele>
        <time>2011-09-10T09:24:49Z</time>
      </trkpt>
      <trkpt lat="45.13578" lon="6.05051">
        <ele>787</ele>
        <time>2011-09-10T09:24:57Z</time>
      </trkpt>
      <trkpt lat="45.13591" lon="6.05059">
        <ele>787</ele>
        <time>2011-09-10T09:25:02Z</time>
      </trkpt>
      <trkpt lat="45.13623" lon="6.05029">
        <ele>787</ele>
        <time>2011-09-10T09:25:15Z</time>
      </trkpt>
      <trkpt lat="45.13673" lon="6.04997">
        <ele>789</ele>
        <time>2011-09-10T09:25:40Z</time>
      </trkpt>
      <trkpt lat="45.13737" lon="6.04969">
        <ele>794</ele>
        <time>2011-09-10T09:26:21Z</time>
      </trkpt>
      <trkpt lat="45.13791" lon="6.0492">
        <ele>802</ele>
        <time>2011-09-10T09:27:00Z</time>
      </trkpt>
      <trkpt lat="45.13823" lon="6.04915">
        <ele>808</ele>
        <time>2011-09-10T09:27:25Z</time>
      </trkpt>
      <trkpt lat="45.13855" lon="6.04945">
        <ele>808</ele>
        <time>2011-09-10T09:27:51Z</time>
      </trkpt>
      <trkpt lat="45.13881" lon="6.04988">
        <ele>813</ele>
        <time>2011-09-10T09:28:19Z</time>
      </trkpt>
      <trkpt lat="45.13902" lon="6.05068">
        <ele>817</ele>
        <time>2011-09-10T09:28:58Z</time>
      </trkpt>
      <trkpt lat="45.13943" lon="6.05199">
        <ele>817</ele>
        <time>2011-09-10T09:29:57Z</time>
      </trkpt>
      <trkpt lat="45.13995" lon="6.05229">
        <ele>827</ele>
        <time>2011-09-10T09:30:27Z</time>
      </trkpt>
      <trkpt lat="45.14014" lon="6.05244">
        <ele>829</ele>
        <time>2011-09-10T09:30:51Z</time>
      </trkpt>
      <trkpt lat="45.14005" lon="6.05244">
        <ele>830</ele>
        <time>2011-09-10T09:31:30Z</time>
      </trkpt>
      <trkpt lat="45.13982" lon="6.05233">
        <ele>838</ele>
        <time>2011-09-10T09:33:39Z</time>
      </trkpt>
      <trkpt lat="45.13941" lon="6.05203">
        <ele>839</ele>
        <time>2011-09-10T09:34:11Z</time>
      </trkpt>
      <trkpt lat="45.13872" lon="6.05093">
        <ele>852</ele>
        <time>2011-09-10T09:34:56Z</time>
      </trkpt>
      <trkpt lat="45.13847" lon="6.05072">
        <ele>861</ele>
        <time>2011-09-10T09:35:16Z</time>
      </trkpt>
      <trkpt lat="45.13802" lon="6.05085">
        <ele>865</ele>
        <time>2011-09-10T09:35:44Z</time>
      </trkpt>
      <trkpt lat="45.13772" lon="6.05104">
        <ele>870</ele>
        <time>2011-09-10T09:36:04Z</time>
      </trkpt>
      <trkpt lat="45.13774" lon="6.05124">
        <ele>874</ele>
        <time>2011-09-10T09:36:11Z</time>
      </trkpt>
      <trkpt lat="45.1378" lon="6.05134">
        <ele>874</ele>
        <time>2011-09-10T09:36:16Z</time>
      </trkpt>
      <trkpt lat="45.13797" lon="6.05132">
        <ele>877</ele>
        <time>2011-09-10T09:36:26Z</time>
      </trkpt>
      <trkpt lat="45.13847" lon="6.05143">
        <ele>884</ele>
        <time>2011-09-10T09:36:55Z</time>
      </trkpt>
      <trkpt lat="45.13883" lon="6.05201">
        <ele>892</ele>
        <time>2011-09-10T09:37:29Z</time>
      </trkpt>
      <trkpt lat="45.13911" lon="6.05269">
        <ele>899</ele>
        <time>2011-09-10T09:38:03Z</time>
      </trkpt>
      <trkpt lat="45.13937" lon="6.05332">
        <ele>906</ele>
        <time>2011-09-10T09:38:35Z</time>
      </trkpt>
      <trkpt lat="45.13945" lon="6.05417">
        <ele>910</ele>
        <time>2011-09-10T09:39:09Z</time>
      </trkpt>
      <trkpt lat="45.13842" lon="6.05583">
        <ele>910</ele>
        <time>2011-09-10T09:40:07Z</time>
      </trkpt>
      <trkpt lat="45.13842" lon="6.056">
        <ele>910</ele>
        <time>2011-09-10T09:40:12Z</time>
      </trkpt>
      <trkpt lat="45.1386" lon="6.05621">
        <ele>910</ele>
        <time>2011-09-10T09:40:18Z</time>
      </trkpt>
      <trkpt lat="45.13915" lon="6.05628">
        <ele>921</ele>
        <time>2011-09-10T09:40:41Z</time>
      </trkpt>
      <trkpt lat="45.14016" lon="6.05613">
        <ele>924</ele>
        <time>2011-09-10T09:41:29Z</time>
      </trkpt>
      <trkpt lat="45.14046" lon="6.05576">
        <ele>927</ele>
        <time>2011-09-10T09:41:52Z</time>
      </trkpt>
      <trkpt lat="45.14087" lon="6.05596">
        <ele>936</ele>
        <time>2011-09-10T09:42:20Z</time>
      </trkpt>
      <trkpt lat="45.14134" lon="6.05623">
        <ele>940</ele>
        <time>2011-09-10T09:42:51Z</time>
      </trkpt>
      <trkpt lat="45.1419" lon="6.05656">
        <ele>946</ele>
        <time>2011-09-10T09:43:27Z</time>
      </trkpt>
      <trkpt lat="45.14233" lon="6.0569">
        <ele>953</ele>
        <time>2011-09-10T09:43:56Z</time>
      </trkpt>
      <trkpt lat="45.14306" lon="6.05744">
        <ele>958</ele>
        <time>2011-09-10T09:44:43Z</time>
      </trkpt>
      <trkpt lat="45.14351" lon="6.05778">
        <ele>965</ele>
        <time>2011-09-10T09:45:14Z</time>
      </trkpt>
      <trkpt lat="45.1439" lon="6.0581">
        <ele>970</ele>
        <time>2011-09-10T09:45:40Z</time>
      </trkpt>
      <trkpt lat="45.14411" lon="6.05868">
        <ele>975</ele>
        <time>2011-09-10T09:46:07Z</time>
      </trkpt>
      <trkpt lat="45.14443" lon="6.05965">
        <ele>981</ele>
        <time>2011-09-10T09:46:58Z</time>
      </trkpt>
      <trkpt lat="45.14482" lon="6.06027">
        <ele>983</ele>
        <time>2011-09-10T09:47:38Z</time>
      </trkpt>
      <trkpt lat="45.14514" lon="6.061">
        <ele>983</ele>
        <time>2011-09-10T09:48:18Z</time>
      </trkpt>
      <trkpt lat="45.14555" lon="6.06173">
        <ele>983</ele>
        <time>2011-09-10T09:49:01Z</time>
      </trkpt>
      <trkpt lat="45.14497" lon="6.06226">
        <ele>983</ele>
        <time>2011-09-10T09:49:31Z</time>
      </trkpt>
      <trkpt lat="45.1451" lon="6.06207">
        <ele>983</ele>
        <time>2011-09-10T09:49:34Z</time>
      </trkpt>
      <trkpt lat="45.14493" lon="6.06304">
        <ele>987</ele>
        <time>2011-09-10T09:49:58Z</time>
      </trkpt>
      <trkpt lat="45.14518" lon="6.06349">
        <ele>993</ele>
        <time>2011-09-10T09:50:20Z</time>
      </trkpt>
      <trkpt lat="45.14548" lon="6.06385">
        <ele>1002</ele>
        <time>2011-09-10T09:50:46Z</time>
      </trkpt>
      <trkpt lat="45.1455" lon="6.06396">
        <ele>1004</ele>
        <time>2011-09-10T09:50:52Z</time>
      </trkpt>
      <trkpt lat="45.14583" lon="6.06407">
        <ele>1010</ele>
        <time>2011-09-10T09:51:10Z</time>
      </trkpt>
      <trkpt lat="45.14596" lon="6.06409">
        <ele>1010</ele>
        <time>2011-09-10T09:51:16Z</time>
      </trkpt>
      <trkpt lat="45.14638" lon="6.06495">
        <ele>1017</ele>
        <time>2011-09-10T09:51:57Z</time>
      </trkpt>
      <trkpt lat="45.14662" lon="6.06544">
        <ele>1020</ele>
        <time>2011-09-10T09:52:25Z</time>
      </trkpt>
      <trkpt lat="45.14699" lon="6.06587">
        <ele>1024</ele>
        <time>2011-09-10T09:52:56Z</time>
      </trkpt>
      <trkpt lat="45.14722" lon="6.06649">
        <ele>1026</ele>
        <time>2011-09-10T09:53:29Z</time>
      </trkpt>
      <trkpt lat="45.14769" lon="6.06741">
        <ele>1028</ele>
        <time>2011-09-10T09:54:22Z</time>
      </trkpt>
      <trkpt lat="45.14793" lon="6.06806">
        <ele>1078</ele>
        <time>2011-09-10T09:55:02Z</time>
      </trkpt>
      <trkpt lat="45.14786" lon="6.06898">
        <ele>1073</ele>
        <time>2011-09-10T09:55:53Z</time>
      </trkpt>
      <trkpt lat="45.14795" lon="6.07014">
        <ele>1075</ele>
        <time>2011-09-10T09:56:59Z</time>
      </trkpt>
      <trkpt lat="45.14808" lon="6.07119">
        <ele>1076</ele>
        <time>2011-09-10T09:57:42Z</time>
      </trkpt>
      <trkpt lat="45.14817" lon="6.07198">
        <ele>1077</ele>
        <time>2011-09-10T09:58:14Z</time>
      </trkpt>
      <trkpt lat="45.14827" lon="6.07235">
        <ele>1078</ele>
        <time>2011-09-10T09:58:34Z</time>
      </trkpt>
      <trkpt lat="45.1487" lon="6.07207">
        <ele>1083</ele>
        <time>2011-09-10T09:59:00Z</time>
      </trkpt>
      <trkpt lat="45.14894" lon="6.0719">
        <ele>1087</ele>
        <time>2011-09-10T09:59:19Z</time>
      </trkpt>
      <trkpt lat="45.149" lon="6.07194">
        <ele>1087</ele>
        <time>2011-09-10T09:59:47Z</time>
      </trkpt>
      <trkpt lat="45.14892" lon="6.07192">
        <ele>1094</ele>
        <time>2011-09-10T10:04:45Z</time>
      </trkpt>
      <trkpt lat="45.14885" lon="6.07196">
        <ele>1093</ele>
        <time>2011-09-10T10:04:49Z</time>
      </trkpt>
      <trkpt lat="45.14862" lon="6.0722">
        <ele>1096</ele>
        <time>2011-09-10T10:05:06Z</time>
      </trkpt>
      <trkpt lat="45.14855" lon="6.07226">
        <ele>1097</ele>
        <time>2011-09-10T10:05:10Z</time>
      </trkpt>
      <trkpt lat="45.14874" lon="6.07226">
        <ele>1098</ele>
        <time>2011-09-10T10:05:21Z</time>
      </trkpt>
      <trkpt lat="45.14947" lon="6.07196">
        <ele>1101</ele>
        <time>2011-09-10T10:06:03Z</time>
      </trkpt>
      <trkpt lat="45.1495" lon="6.07196">
        <ele>1101</ele>
        <time>2011-09-10T10:06:04Z</time>
      </trkpt>
      <trkpt lat="45.14952" lon="6.07209">
        <ele>1102</ele>
        <time>2011-09-10T10:06:10Z</time>
      </trkpt>
      <trkpt lat="45.14977" lon="6.07254">
        <ele>1104</ele>
        <time>2011-09-10T10:06:34Z</time>
      </trkpt>
      <trkpt lat="45.14986" lon="6.07261">
        <ele>1104</ele>
        <time>2011-09-10T10:06:40Z</time>
      </trkpt>
      <trkpt lat="45.15014" lon="6.07306">
        <ele>1106</ele>
        <time>2011-09-10T10:07:05Z</time>
      </trkpt>
      <trkpt lat="45.15018" lon="6.07314">
        <ele>1106</ele>
        <time>2011-09-10T10:07:10Z</time>
      </trkpt>
      <trkpt lat="45.15018" lon="6.07323">
        <ele>1106</ele>
        <time>2011-09-10T10:07:15Z</time>
      </trkpt>
      <trkpt lat="45.15031" lon="6.07344">
        <ele>1107</ele>
        <time>2011-09-10T10:07:29Z</time>
      </trkpt>
      <trkpt lat="45.15048" lon="6.07374">
        <ele>1107</ele>
        <time>2011-09-10T10:07:46Z</time>
      </trkpt>
      <trkpt lat="45.15055" lon="6.07372">
        <ele>1107</ele>
        <time>2011-09-10T10:07:51Z</time>
      </trkpt>
      <trkpt lat="45.15059" lon="6.07377">
        <ele>1108</ele>
        <time>2011-09-10T10:07:59Z</time>
      </trkpt>
      <trkpt lat="45.15104" lon="6.07387">
        <ele>1110</ele>
        <time>2011-09-10T10:08:20Z</time>
      </trkpt>
      <trkpt lat="45.15153" lon="6.07409">
        <ele>1113</ele>
        <time>2011-09-10T10:08:50Z</time>
      </trkpt>
      <trkpt lat="45.15188" lon="6.07482">
        <ele>1115</ele>
        <time>2011-09-10T10:09:25Z</time>
      </trkpt>
      <trkpt lat="45.15207" lon="6.07546">
        <ele>1121</ele>
        <time>2011-09-10T10:09:54Z</time>
      </trkpt>
      <trkpt lat="45.15207" lon="6.0755">
        <ele>1121</ele>
        <time>2011-09-10T10:09:56Z</time>
      </trkpt>
      <trkpt lat="45.15224" lon="6.07587">
        <ele>1124</ele>
        <time>2011-09-10T10:10:17Z</time>
      </trkpt>
      <trkpt lat="45.15248" lon="6.07643">
        <ele>1127</ele>
        <time>2011-09-10T10:10:47Z</time>
      </trkpt>
      <trkpt lat="45.15265" lon="6.07711">
        <ele>1131</ele>
        <time>2011-09-10T10:11:23Z</time>
      </trkpt>
      <trkpt lat="45.15286" lon="6.07769">
        <ele>1136</ele>
        <time>2011-09-10T10:11:56Z</time>
      </trkpt>
      <trkpt lat="45.1531" lon="6.07836">
        <ele>1139</ele>
        <time>2011-09-10T10:12:34Z</time>
      </trkpt>
      <trkpt lat="45.15301" lon="6.07926">
        <ele>1140</ele>
        <time>2011-09-10T10:13:26Z</time>
      </trkpt>
      <trkpt lat="45.15241" lon="6.0805">
        <ele>1140</ele>
        <time>2011-09-10T10:14:20Z</time>
      </trkpt>
      <trkpt lat="45.15237" lon="6.08059">
        <ele>1140</ele>
        <time>2011-09-10T10:14:35Z</time>
      </trkpt>
      <trkpt lat="45.15271" lon="6.08072">
        <ele>1172</ele>
        <time>2011-09-10T10:15:29Z</time>
      </trkpt>
      <trkpt lat="45.15269" lon="6.08108">
        <ele>1184</ele>
        <time>2011-09-10T10:15:50Z</time>
      </trkpt>
      <trkpt lat="45.15289" lon="6.08153">
        <ele>1188</ele>
        <time>2011-09-10T10:16:19Z</time>
      </trkpt>
      <trkpt lat="45.15284" lon="6.08158">
        <ele>1183</ele>
        <time>2011-09-10T10:16:58Z</time>
      </trkpt>
      <trkpt lat="45.15295" lon="6.08209">
        <ele>1183</ele>
        <time>2011-09-10T10:17:10Z</time>
      </trkpt>
      <trkpt lat="45.15323" lon="6.08271">
        <ele>1183</ele>
        <time>2011-09-10T10:17:41Z</time>
      </trkpt>
      <trkpt lat="45.15344" lon="6.08289">
        <ele>1181</ele>
        <time>2011-09-10T10:18:34Z</time>
      </trkpt>
      <trkpt lat="45.15432" lon="6.08366">
        <ele>1176</ele>
        <time>2011-09-10T10:18:51Z</time>
      </trkpt>
      <trkpt lat="45.15437" lon="6.08353">
        <ele>1176</ele>
        <time>2011-09-10T10:19:09Z</time>
      </trkpt>
      <trkpt lat="45.15428" lon="6.08338">
        <ele>1176</ele>
        <time>2011-09-10T10:20:58Z</time>
      </trkpt>
      <trkpt lat="45.1545" lon="6.08346">
        <ele>1176</ele>
        <time>2011-09-10T10:21:33Z</time>
      </trkpt>
      <trkpt lat="45.15482" lon="6.08308">
        <ele>1175</ele>
        <time>2011-09-10T10:22:02Z</time>
      </trkpt>
      <trkpt lat="45.1549" lon="6.08295">
        <ele>1173</ele>
        <time>2011-09-10T10:22:20Z</time>
      </trkpt>
      <trkpt lat="45.15514" lon="6.0831">
        <ele>1169</ele>
        <time>2011-09-10T10:22:24Z</time>
      </trkpt>
      <trkpt lat="45.15548" lon="6.08329">
        <ele>1167</ele>
        <time>2011-09-10T10:22:37Z</time>
      </trkpt>
      <trkpt lat="45.15548" lon="6.08336">
        <ele>1165</ele>
        <time>2011-09-10T10:22:53Z</time>
      </trkpt>
      <trkpt lat="45.15555" lon="6.08353">
        <ele>1164</ele>
        <time>2011-09-10T10:23:39Z</time>
      </trkpt>
      <trkpt lat="45.15568" lon="6.08379">
        <ele>1163</ele>
        <time>2011-09-10T10:24:04Z</time>
      </trkpt>
      <trkpt lat="45.15716" lon="6.08537">
        <ele>1163</ele>
        <time>2011-09-10T10:25:47Z</time>
      </trkpt>
      <trkpt lat="45.15724" lon="6.08537">
        <ele>1163</ele>
        <time>2011-09-10T10:25:52Z</time>
      </trkpt>
      <trkpt lat="45.1572" lon="6.08516">
        <ele>1201</ele>
        <time>2011-09-10T10:26:17Z</time>
      </trkpt>
      <trkpt lat="45.15797" lon="6.08623">
        <ele>1201</ele>
        <time>2011-09-10T10:29:48Z</time>
      </trkpt>
      <trkpt lat="45.15808" lon="6.08651">
        <ele>1201</ele>
        <time>2011-09-10T10:30:24Z</time>
      </trkpt>
      <trkpt lat="45.15825" lon="6.08681">
        <ele>1201</ele>
        <time>2011-09-10T10:30:55Z</time>
      </trkpt>
      <trkpt lat="45.15825" lon="6.08673">
        <ele>1201</ele>
        <time>2011-09-10T10:31:17Z</time>
      </trkpt>
      <trkpt lat="45.15831" lon="6.08673">
        <ele>1201</ele>
        <time>2011-09-10T10:31:48Z</time>
      </trkpt>
      <trkpt lat="45.15844" lon="6.08681">
        <ele>1203</ele>
        <time>2011-09-10T10:32:47Z</time>
      </trkpt>
      <trkpt lat="45.15967" lon="6.08758">
        <ele>1205</ele>
        <time>2011-09-10T10:34:02Z</time>
      </trkpt>
      <trkpt lat="45.15947" lon="6.08784">
        <ele>1205</ele>
        <time>2011-09-10T10:34:04Z</time>
      </trkpt>
      <trkpt lat="45.15956" lon="6.08788">
        <ele>1219</ele>
        <time>2011-09-10T10:34:20Z</time>
      </trkpt>
      <trkpt lat="45.15973" lon="6.08788">
        <ele>1239</ele>
        <time>2011-09-10T10:34:46Z</time>
      </trkpt>
      <trkpt lat="45.16001" lon="6.0878">
        <ele>1294</ele>
        <time>2011-09-10T10:35:28Z</time>
      </trkpt>
      <trkpt lat="45.16003" lon="6.0878">
        <ele>1298</ele>
        <time>2011-09-10T10:35:33Z</time>
      </trkpt>
      <trkpt lat="45.16007" lon="6.08795">
        <ele>1292</ele>
        <time>2011-09-10T10:35:48Z</time>
      </trkpt>
      <trkpt lat="45.1604" lon="6.08827">
        <ele>1292</ele>
        <time>2011-09-10T10:36:47Z</time>
      </trkpt>
      <trkpt lat="45.16055" lon="6.0884">
        <ele>1288</ele>
        <time>2011-09-10T10:37:03Z</time>
      </trkpt>
      <trkpt lat="45.1608" lon="6.08876">
        <ele>1287</ele>
        <time>2011-09-10T10:37:43Z</time>
      </trkpt>
      <trkpt lat="45.16125" lon="6.08937">
        <ele>1288</ele>
        <time>2011-09-10T10:38:49Z</time>
      </trkpt>
      <trkpt lat="45.16147" lon="6.0893">
        <ele>1291</ele>
        <time>2011-09-10T10:39:18Z</time>
      </trkpt>
      <trkpt lat="45.1616" lon="6.08945">
        <ele>1292</ele>
        <time>2011-09-10T10:39:36Z</time>
      </trkpt>
      <trkpt lat="45.16179" lon="6.08962">
        <ele>1291</ele>
        <time>2011-09-10T10:40:01Z</time>
      </trkpt>
      <trkpt lat="45.16205" lon="6.08988">
        <ele>1291</ele>
        <time>2011-09-10T10:41:00Z</time>
      </trkpt>
      <trkpt lat="45.16213" lon="6.09022">
        <ele>1292</ele>
        <time>2011-09-10T10:41:47Z</time>
      </trkpt>
      <trkpt lat="45.16209" lon="6.09022">
        <ele>1285</ele>
        <time>2011-09-10T10:42:41Z</time>
      </trkpt>
      <trkpt lat="45.1622" lon="6.09022">
        <ele>1286</ele>
        <time>2011-09-10T10:43:41Z</time>
      </trkpt>
      <trkpt lat="45.16231" lon="6.0904">
        <ele>1287</ele>
        <time>2011-09-10T10:43:58Z</time>
      </trkpt>
      <trkpt lat="45.16248" lon="6.09085">
        <ele>1291</ele>
        <time>2011-09-10T10:44:25Z</time>
      </trkpt>
      <trkpt lat="45.16278" lon="6.09132">
        <ele>1295</ele>
        <time>2011-09-10T10:44:55Z</time>
      </trkpt>
      <trkpt lat="45.16297" lon="6.09162">
        <ele>1297</ele>
        <time>2011-09-10T10:45:18Z</time>
      </trkpt>
      <trkpt lat="45.16319" lon="6.09194">
        <ele>1297</ele>
        <time>2011-09-10T10:45:38Z</time>
      </trkpt>
      <trkpt lat="45.16338" lon="6.09233">
        <ele>1297</ele>
        <time>2011-09-10T10:45:58Z</time>
      </trkpt>
      <trkpt lat="45.16366" lon="6.09284">
        <ele>1301</ele>
        <time>2011-09-10T10:46:30Z</time>
      </trkpt>
      <trkpt lat="45.16419" lon="6.09346">
        <ele>1301</ele>
        <time>2011-09-10T10:47:13Z</time>
      </trkpt>
      <trkpt lat="45.16467" lon="6.09379">
        <ele>1301</ele>
        <time>2011-09-10T10:47:41Z</time>
      </trkpt>
      <trkpt lat="45.16467" lon="6.09379">
        <ele>1301</ele>
        <time>2011-09-10T10:47:42Z</time>
      </trkpt>
      <trkpt lat="45.16516" lon="6.09443">
        <ele>1301</ele>
        <time>2011-09-10T10:48:26Z</time>
      </trkpt>
      <trkpt lat="45.1654" lon="6.09458">
        <ele>1301</ele>
        <time>2011-09-10T10:48:42Z</time>
      </trkpt>
      <trkpt lat="45.16565" lon="6.09471">
        <ele>1301</ele>
        <time>2011-09-10T10:49:02Z</time>
      </trkpt>
      <trkpt lat="45.16533" lon="6.09499">
        <ele>1313</ele>
        <time>2011-09-10T10:49:21Z</time>
      </trkpt>
      <trkpt lat="45.16552" lon="6.09529">
        <ele>1324</ele>
        <time>2011-09-10T10:49:42Z</time>
      </trkpt>
      <trkpt lat="45.16587" lon="6.0957">
        <ele>1325</ele>
        <time>2011-09-10T10:50:09Z</time>
      </trkpt>
      <trkpt lat="45.16623" lon="6.09615">
        <ele>1331</ele>
        <time>2011-09-10T10:50:44Z</time>
      </trkpt>
      <trkpt lat="45.1666" lon="6.09651">
        <ele>1333</ele>
        <time>2011-09-10T10:51:16Z</time>
      </trkpt>
      <trkpt lat="45.16658" lon="6.09675">
        <ele>1333</ele>
        <time>2011-09-10T10:51:28Z</time>
      </trkpt>
      <trkpt lat="45.1669" lon="6.09722">
        <ele>1343</ele>
        <time>2011-09-10T10:52:11Z</time>
      </trkpt>
      <trkpt lat="45.1672" lon="6.09726">
        <ele>1349</ele>
        <time>2011-09-10T10:52:43Z</time>
      </trkpt>
      <trkpt lat="45.16728" lon="6.09728">
        <ele>1349</ele>
        <time>2011-09-10T10:52:52Z</time>
      </trkpt>
      <trkpt lat="45.16733" lon="6.09737">
        <ele>1351</ele>
        <time>2011-09-10T10:52:56Z</time>
      </trkpt>
      <trkpt lat="45.16735" lon="6.09748">
        <ele>1352</ele>
        <time>2011-09-10T10:53:01Z</time>
      </trkpt>
      <trkpt lat="45.1678" lon="6.09836">
        <ele>1355</ele>
        <time>2011-09-10T10:53:50Z</time>
      </trkpt>
      <trkpt lat="45.16812" lon="6.09919">
        <ele>1360</ele>
        <time>2011-09-10T10:54:37Z</time>
      </trkpt>
      <trkpt lat="45.16812" lon="6.09926">
        <ele>1363</ele>
        <time>2011-09-10T10:54:41Z</time>
      </trkpt>
      <trkpt lat="45.16823" lon="6.09949">
        <ele>1375</ele>
        <time>2011-09-10T10:55:02Z</time>
      </trkpt>
      <trkpt lat="45.16823" lon="6.09949">
        <ele>1378</ele>
        <time>2011-09-10T10:55:36Z</time>
      </trkpt>
      <trkpt lat="45.16821" lon="6.09958">
        <ele>1382</ele>
        <time>2011-09-10T11:01:28Z</time>
      </trkpt>
      <trkpt lat="45.16851" lon="6.10014">
        <ele>1383</ele>
        <time>2011-09-10T11:01:55Z</time>
      </trkpt>
      <trkpt lat="45.16864" lon="6.10052">
        <ele>1384</ele>
        <time>2011-09-10T11:02:17Z</time>
      </trkpt>
      <trkpt lat="45.16879" lon="6.10065">
        <ele>1388</ele>
        <time>2011-09-10T11:02:32Z</time>
      </trkpt>
      <trkpt lat="45.16881" lon="6.10067">
        <ele>1388</ele>
        <time>2011-09-10T11:02:34Z</time>
      </trkpt>
      <trkpt lat="45.16911" lon="6.1011">
        <ele>1391</ele>
        <time>2011-09-10T11:03:28Z</time>
      </trkpt>
      <trkpt lat="45.16917" lon="6.10121">
        <ele>1393</ele>
        <time>2011-09-10T11:03:48Z</time>
      </trkpt>
      <trkpt lat="45.16928" lon="6.1016">
        <ele>1400</ele>
        <time>2011-09-10T11:04:34Z</time>
      </trkpt>
      <trkpt lat="45.16939" lon="6.10192">
        <ele>1409</ele>
        <time>2011-09-10T11:05:14Z</time>
      </trkpt>
      <trkpt lat="45.16941" lon="6.10224">
        <ele>1416</ele>
        <time>2011-09-10T11:06:08Z</time>
      </trkpt>
      <trkpt lat="45.16917" lon="6.10211">
        <ele>1418</ele>
        <time>2011-09-10T11:06:50Z</time>
      </trkpt>
      <trkpt lat="45.16911" lon="6.1023">
        <ele>1424</ele>
        <time>2011-09-10T11:07:28Z</time>
      </trkpt>
      <trkpt lat="45.1693" lon="6.10282">
        <ele>1429</ele>
        <time>2011-09-10T11:08:39Z</time>
      </trkpt>
      <trkpt lat="45.16941" lon="6.10314">
        <ele>1432</ele>
        <time>2011-09-10T11:09:36Z</time>
      </trkpt>
      <trkpt lat="45.16904" lon="6.10325">
        <ele>1445</ele>
        <time>2011-09-10T11:11:38Z</time>
      </trkpt>
      <trkpt lat="45.16881" lon="6.10323">
        <ele>1449</ele>
        <time>2011-09-10T11:12:22Z</time>
      </trkpt>
      <trkpt lat="45.16866" lon="6.10323">
        <ele>1451</ele>
        <time>2011-09-10T11:12:58Z</time>
      </trkpt>
      <trkpt lat="45.16857" lon="6.10323">
        <ele>1451</ele>
        <time>2011-09-10T11:13:23Z</time>
      </trkpt>
      <trkpt lat="45.16836" lon="6.10321">
        <ele>1453</ele>
        <time>2011-09-10T11:14:08Z</time>
      </trkpt>
      <trkpt lat="45.16819" lon="6.10316">
        <ele>1460</ele>
        <time>2011-09-10T11:14:39Z</time>
      </trkpt>
      <trkpt lat="45.16793" lon="6.10299">
        <ele>1481</ele>
        <time>2011-09-10T11:15:10Z</time>
      </trkpt>
      <trkpt lat="45.16771" lon="6.10286">
        <ele>1484</ele>
        <time>2011-09-10T11:15:58Z</time>
      </trkpt>
      <trkpt lat="45.1675" lon="6.10263">
        <ele>1490</ele>
        <time>2011-09-10T11:16:46Z</time>
      </trkpt>
      <trkpt lat="45.16724" lon="6.10248">
        <ele>1502</ele>
        <time>2011-09-10T11:17:31Z</time>
      </trkpt>
      <trkpt lat="45.16703" lon="6.10226">
        <ele>1506</ele>
        <time>2011-09-10T11:18:18Z</time>
      </trkpt>
      <trkpt lat="45.16694" lon="6.10222">
        <ele>1514</ele>
        <time>2011-09-10T11:18:55Z</time>
      </trkpt>
      <trkpt lat="45.16675" lon="6.10222">
        <ele>1522</ele>
        <time>2011-09-10T11:19:30Z</time>
      </trkpt>
      <trkpt lat="45.16658" lon="6.10226">
        <ele>1533</ele>
        <time>2011-09-10T11:19:56Z</time>
      </trkpt>
      <trkpt lat="45.16625" lon="6.10224">
        <ele>1565</ele>
        <time>2011-09-10T11:20:31Z</time>
      </trkpt>
      <trkpt lat="45.166" lon="6.1023">
        <ele>1564</ele>
        <time>2011-09-10T11:21:19Z</time>
      </trkpt>
      <trkpt lat="45.16576" lon="6.10241">
        <ele>1569</ele>
        <time>2011-09-10T11:22:03Z</time>
      </trkpt>
      <trkpt lat="45.16548" lon="6.10252">
        <ele>1573</ele>
        <time>2011-09-10T11:22:47Z</time>
      </trkpt>
      <trkpt lat="45.16525" lon="6.1025">
        <ele>1578</ele>
        <time>2011-09-10T11:23:20Z</time>
      </trkpt>
      <trkpt lat="45.16497" lon="6.10248">
        <ele>1585</ele>
        <time>2011-09-10T11:24:03Z</time>
      </trkpt>
      <trkpt lat="45.16488" lon="6.10248">
        <ele>1589</ele>
        <time>2011-09-10T11:24:57Z</time>
      </trkpt>
      <trkpt lat="45.16471" lon="6.10243">
        <ele>1591</ele>
        <time>2011-09-10T11:25:52Z</time>
      </trkpt>
      <trkpt lat="45.16432" lon="6.10235">
        <ele>1591</ele>
        <time>2011-09-10T11:26:50Z</time>
      </trkpt>
      <trkpt lat="45.1643" lon="6.1023">
        <ele>1591</ele>
        <time>2011-09-10T11:27:07Z</time>
      </trkpt>
      <trkpt lat="45.16417" lon="6.10224">
        <ele>1591</ele>
        <time>2011-09-10T11:27:31Z</time>
      </trkpt>
      <trkpt lat="45.16407" lon="6.10218">
        <ele>1594</ele>
        <time>2011-09-10T11:28:00Z</time>
      </trkpt>
      <trkpt lat="45.16389" lon="6.10209">
        <ele>1595</ele>
        <time>2011-09-10T11:28:38Z</time>
      </trkpt>
      <trkpt lat="45.16372" lon="6.10194">
        <ele>1600</ele>
        <time>2011-09-10T11:29:11Z</time>
      </trkpt>
      <trkpt lat="45.16361" lon="6.10166">
        <ele>1615</ele>
        <time>2011-09-10T11:29:55Z</time>
      </trkpt>
      <trkpt lat="45.16357" lon="6.10149">
        <ele>1615</ele>
        <time>2011-09-10T11:30:15Z</time>
      </trkpt>
      <trkpt lat="45.16344" lon="6.10134">
        <ele>1623</ele>
        <time>2011-09-10T11:30:46Z</time>
      </trkpt>
      <trkpt lat="45.16329" lon="6.10104">
        <ele>1628</ele>
        <time>2011-09-10T11:31:24Z</time>
      </trkpt>
      <trkpt lat="45.16314" lon="6.1008">
        <ele>1634</ele>
        <time>2011-09-10T11:31:59Z</time>
      </trkpt>
      <trkpt lat="45.16301" lon="6.10063">
        <ele>1634</ele>
        <time>2011-09-10T11:32:24Z</time>
      </trkpt>
      <trkpt lat="45.16299" lon="6.10054">
        <ele>1644</ele>
        <time>2011-09-10T11:32:56Z</time>
      </trkpt>
      <trkpt lat="45.16306" lon="6.10057">
        <ele>1649</ele>
        <time>2011-09-10T11:36:48Z</time>
      </trkpt>
      <trkpt lat="45.16306" lon="6.10057">
        <ele>1657</ele>
        <time>2011-09-10T11:38:40Z</time>
      </trkpt>
      <trkpt lat="45.16306" lon="6.10054">
        <ele>1657</ele>
        <time>2011-09-10T11:38:42Z</time>
      </trkpt>
      <trkpt lat="45.16297" lon="6.1002">
        <ele>1658</ele>
        <time>2011-09-10T11:38:58Z</time>
      </trkpt>
      <trkpt lat="45.16289" lon="6.09975">
        <ele>1660</ele>
        <time>2011-09-10T11:39:22Z</time>
      </trkpt>
      <trkpt lat="45.16273" lon="6.09969">
        <ele>1663</ele>
        <time>2011-09-10T11:39:40Z</time>
      </trkpt>
      <trkpt lat="45.16263" lon="6.09973">
        <ele>1666</ele>
        <time>2011-09-10T11:39:51Z</time>
      </trkpt>
      <trkpt lat="45.16254" lon="6.09969">
        <ele>1667</ele>
        <time>2011-09-10T11:39:58Z</time>
      </trkpt>
      <trkpt lat="45.16226" lon="6.09967">
        <ele>1669</ele>
        <time>2011-09-10T11:40:28Z</time>
      </trkpt>
      <trkpt lat="45.16196" lon="6.09941">
        <ele>1676</ele>
        <time>2011-09-10T11:40:57Z</time>
      </trkpt>
      <trkpt lat="45.16188" lon="6.09941">
        <ele>1678</ele>
        <time>2011-09-10T11:41:04Z</time>
      </trkpt>
      <trkpt lat="45.16175" lon="6.09939">
        <ele>1683</ele>
        <time>2011-09-10T11:41:16Z</time>
      </trkpt>
      <trkpt lat="45.16158" lon="6.09932">
        <ele>1686</ele>
        <time>2011-09-10T11:41:34Z</time>
      </trkpt>
      <trkpt lat="45.16138" lon="6.09941">
        <ele>1690</ele>
        <time>2011-09-10T11:41:52Z</time>
      </trkpt>
      <trkpt lat="45.16104" lon="6.09941">
        <ele>1696</ele>
        <time>2011-09-10T11:42:25Z</time>
      </trkpt>
      <trkpt lat="45.16072" lon="6.09936">
        <ele>1699</ele>
        <time>2011-09-10T11:42:55Z</time>
      </trkpt>
      <trkpt lat="45.16033" lon="6.09941">
        <ele>1706</ele>
        <time>2011-09-10T11:43:34Z</time>
      </trkpt>
      <trkpt lat="45.16003" lon="6.09932">
        <ele>1709</ele>
        <time>2011-09-10T11:43:59Z</time>
      </trkpt>
      <trkpt lat="45.15954" lon="6.09917">
        <ele>1716</ele>
        <time>2011-09-10T11:44:42Z</time>
      </trkpt>
      <trkpt lat="45.15926" lon="6.09894">
        <ele>1720</ele>
        <time>2011-09-10T11:45:08Z</time>
      </trkpt>
      <trkpt lat="45.15894" lon="6.09879">
        <ele>1724</ele>
        <time>2011-09-10T11:45:29Z</time>
      </trkpt>
      <trkpt lat="45.15846" lon="6.09874">
        <ele>1729</ele>
        <time>2011-09-10T11:46:09Z</time>
      </trkpt>
      <trkpt lat="45.1581" lon="6.09855">
        <ele>1732</ele>
        <time>2011-09-10T11:46:40Z</time>
      </trkpt>
      <trkpt lat="45.15771" lon="6.09827">
        <ele>1737</ele>
        <time>2011-09-10T11:47:09Z</time>
      </trkpt>
      <trkpt lat="45.15771" lon="6.09825">
        <ele>1737</ele>
        <time>2011-09-10T11:47:10Z</time>
      </trkpt>
      <trkpt lat="45.15763" lon="6.09808">
        <ele>1742</ele>
        <time>2011-09-10T11:47:28Z</time>
      </trkpt>
      <trkpt lat="45.15765" lon="6.09801">
        <ele>1725</ele>
        <time>2011-09-10T11:49:06Z</time>
      </trkpt>
      <trkpt lat="45.15759" lon="6.09786">
        <ele>1717</ele>
        <time>2011-09-10T11:54:30Z</time>
      </trkpt>
      <trkpt lat="45.15767" lon="6.09808">
        <ele>1738</ele>
        <time>2011-09-10T11:57:26Z</time>
      </trkpt>
      <trkpt lat="45.15769" lon="6.0981">
        <ele>1741</ele>
        <time>2011-09-10T11:58:28Z</time>
      </trkpt>
      <trkpt lat="45.15761" lon="6.0981">
        <ele>1742</ele>
        <time>2011-09-10T11:58:33Z</time>
      </trkpt>
      <trkpt lat="45.15735" lon="6.0981">
        <ele>1747</ele>
        <time>2011-09-10T11:58:55Z</time>
      </trkpt>
      <trkpt lat="45.1572" lon="6.09799">
        <ele>1749</ele>
        <time>2011-09-10T11:59:10Z</time>
      </trkpt>
      <trkpt lat="45.15696" lon="6.09782">
        <ele>1753</ele>
        <time>2011-09-10T11:59:37Z</time>
      </trkpt>
      <trkpt lat="45.15677" lon="6.09773">
        <ele>1758</ele>
        <time>2011-09-10T11:59:58Z</time>
      </trkpt>
      <trkpt lat="45.15666" lon="6.09756">
        <ele>1762</ele>
        <time>2011-09-10T12:00:16Z</time>
      </trkpt>
      <trkpt lat="45.15651" lon="6.09743">
        <ele>1766</ele>
        <time>2011-09-10T12:00:33Z</time>
      </trkpt>
      <trkpt lat="45.15636" lon="6.09726">
        <ele>1770</ele>
        <time>2011-09-10T12:00:52Z</time>
      </trkpt>
      <trkpt lat="45.15621" lon="6.0972">
        <ele>1770</ele>
        <time>2011-09-10T12:01:03Z</time>
      </trkpt>
      <trkpt lat="45.15591" lon="6.09685">
        <ele>1772</ele>
        <time>2011-09-10T12:01:17Z</time>
      </trkpt>
      <trkpt lat="45.15591" lon="6.09683">
        <ele>1772</ele>
        <time>2011-09-10T12:01:18Z</time>
      </trkpt>
      <trkpt lat="45.15585" lon="6.09681">
        <ele>1773</ele>
        <time>2011-09-10T12:01:22Z</time>
      </trkpt>
      <trkpt lat="45.15578" lon="6.09673">
        <ele>1775</ele>
        <time>2011-09-10T12:01:29Z</time>
      </trkpt>
      <trkpt lat="45.15555" lon="6.09675">
        <ele>1780</ele>
        <time>2011-09-10T12:01:52Z</time>
      </trkpt>
      <trkpt lat="45.15565" lon="6.09683">
        <ele>1780</ele>
        <time>2011-09-10T12:02:00Z</time>
      </trkpt>
      <trkpt lat="45.15576" lon="6.09703">
        <ele>1781</ele>
        <time>2011-09-10T12:02:10Z</time>
      </trkpt>
      <trkpt lat="45.15576" lon="6.09715">
        <ele>1783</ele>
        <time>2011-09-10T12:02:16Z</time>
      </trkpt>
      <trkpt lat="45.1558" lon="6.0973">
        <ele>1784</ele>
        <time>2011-09-10T12:02:24Z</time>
      </trkpt>
      <trkpt lat="45.15585" lon="6.09771">
        <ele>1786</ele>
        <time>2011-09-10T12:02:46Z</time>
      </trkpt>
      <trkpt lat="45.15608" lon="6.0981">
        <ele>1790</ele>
        <time>2011-09-10T12:03:15Z</time>
      </trkpt>
      <trkpt lat="45.15625" lon="6.09853">
        <ele>1793</ele>
        <time>2011-09-10T12:03:43Z</time>
      </trkpt>
      <trkpt lat="45.15632" lon="6.09898">
        <ele>1800</ele>
        <time>2011-09-10T12:04:16Z</time>
      </trkpt>
      <trkpt lat="45.15621" lon="6.09941">
        <ele>1804</ele>
        <time>2011-09-10T12:04:41Z</time>
      </trkpt>
      <trkpt lat="45.15621" lon="6.09979">
        <ele>1806</ele>
        <time>2011-09-10T12:05:06Z</time>
      </trkpt>
      <trkpt lat="45.15625" lon="6.09997">
        <ele>1810</ele>
        <time>2011-09-10T12:05:31Z</time>
      </trkpt>
      <trkpt lat="45.15619" lon="6.10012">
        <ele>1812</ele>
        <time>2011-09-10T12:05:58Z</time>
      </trkpt>
      <trkpt lat="45.15617" lon="6.10009">
        <ele>1813</ele>
        <time>2011-09-10T12:06:08Z</time>
      </trkpt>
      <trkpt lat="45.15593" lon="6.0999">
        <ele>1815</ele>
        <time>2011-09-10T12:06:29Z</time>
      </trkpt>
      <trkpt lat="45.15574" lon="6.09936">
        <ele>1819</ele>
        <time>2011-09-10T12:06:58Z</time>
      </trkpt>
      <trkpt lat="45.15563" lon="6.0993">
        <ele>1821</ele>
        <time>2011-09-10T12:07:17Z</time>
      </trkpt>
      <trkpt lat="45.1555" lon="6.09921">
        <ele>1826</ele>
        <time>2011-09-10T12:07:47Z</time>
      </trkpt>
      <trkpt lat="45.15548" lon="6.09921">
        <ele>1827</ele>
        <time>2011-09-10T12:07:54Z</time>
      </trkpt>
      <trkpt lat="45.15542" lon="6.09921">
        <ele>1829</ele>
        <time>2011-09-10T12:07:59Z</time>
      </trkpt>
      <trkpt lat="45.15505" lon="6.099">
        <ele>1833</ele>
        <time>2011-09-10T12:08:23Z</time>
      </trkpt>
      <trkpt lat="45.1548" lon="6.09851">
        <ele>1834</ele>
        <time>2011-09-10T12:08:38Z</time>
      </trkpt>
      <trkpt lat="45.15445" lon="6.09791">
        <ele>1835</ele>
        <time>2011-09-10T12:08:53Z</time>
      </trkpt>
      <trkpt lat="45.15413" lon="6.09741">
        <ele>1836</ele>
        <time>2011-09-10T12:09:07Z</time>
      </trkpt>
      <trkpt lat="45.1537" lon="6.09694">
        <ele>1835</ele>
        <time>2011-09-10T12:09:26Z</time>
      </trkpt>
      <trkpt lat="45.15366" lon="6.09688">
        <ele>1835</ele>
        <time>2011-09-10T12:09:28Z</time>
      </trkpt>
      <trkpt lat="45.1534" lon="6.09675">
        <ele>1835</ele>
        <time>2011-09-10T12:09:32Z</time>
      </trkpt>
      <trkpt lat="45.1531" lon="6.09675">
        <ele>1837</ele>
        <time>2011-09-10T12:09:42Z</time>
      </trkpt>
      <trkpt lat="45.15271" lon="6.09679">
        <ele>1836</ele>
        <time>2011-09-10T12:10:00Z</time>
      </trkpt>
      <trkpt lat="45.1522" lon="6.09685">
        <ele>1839</ele>
        <time>2011-09-10T12:10:25Z</time>
      </trkpt>
      <trkpt lat="45.1516" lon="6.0967">
        <ele>1842</ele>
        <time>2011-09-10T12:10:59Z</time>
      </trkpt>
      <trkpt lat="45.15136" lon="6.09658">
        <ele>1842</ele>
        <time>2011-09-10T12:11:16Z</time>
      </trkpt>
      <trkpt lat="45.15095" lon="6.09653">
        <ele>1847</ele>
        <time>2011-09-10T12:11:48Z</time>
      </trkpt>
      <trkpt lat="45.15085" lon="6.09655">
        <ele>1848</ele>
        <time>2011-09-10T12:11:58Z</time>
      </trkpt>
      <trkpt lat="45.15055" lon="6.09645">
        <ele>1855</ele>
        <time>2011-09-10T12:12:30Z</time>
      </trkpt>
      <trkpt lat="45.15042" lon="6.09636">
        <ele>1856</ele>
        <time>2011-09-10T12:12:46Z</time>
      </trkpt>
      <trkpt lat="45.15038" lon="6.0963">
        <ele>1856</ele>
        <time>2011-09-10T12:12:52Z</time>
      </trkpt>
      <trkpt lat="45.15018" lon="6.09612">
        <ele>1859</ele>
        <time>2011-09-10T12:13:20Z</time>
      </trkpt>
      <trkpt lat="45.15005" lon="6.09606">
        <ele>1863</ele>
        <time>2011-09-10T12:13:46Z</time>
      </trkpt>
      <trkpt lat="45.14984" lon="6.09595">
        <ele>1869</ele>
        <time>2011-09-10T12:14:27Z</time>
      </trkpt>
      <trkpt lat="45.14965" lon="6.09597">
        <ele>1874</ele>
        <time>2011-09-10T12:14:58Z</time>
      </trkpt>
      <trkpt lat="45.14962" lon="6.09597">
        <ele>1876</ele>
        <time>2011-09-10T12:15:32Z</time>
      </trkpt>
      <trkpt lat="45.14962" lon="6.09597">
        <ele>1876</ele>
        <time>2011-09-10T12:15:34Z</time>
      </trkpt>
      <trkpt lat="45.14956" lon="6.09597">
        <ele>1877</ele>
        <time>2011-09-10T12:15:38Z</time>
      </trkpt>
      <trkpt lat="45.14937" lon="6.09593">
        <ele>1880</ele>
        <time>2011-09-10T12:15:55Z</time>
      </trkpt>
      <trkpt lat="45.14902" lon="6.09589">
        <ele>1884</ele>
        <time>2011-09-10T12:16:27Z</time>
      </trkpt>
      <trkpt lat="45.14877" lon="6.09576">
        <ele>1889</ele>
        <time>2011-09-10T12:16:54Z</time>
      </trkpt>
      <trkpt lat="45.14827" lon="6.09574">
        <ele>1894</ele>
        <time>2011-09-10T12:17:25Z</time>
      </trkpt>
      <trkpt lat="45.14782" lon="6.09572">
        <ele>1897</ele>
        <time>2011-09-10T12:17:53Z</time>
      </trkpt>
      <trkpt lat="45.14718" lon="6.09559">
        <ele>1900</ele>
        <time>2011-09-10T12:18:31Z</time>
      </trkpt>
      <trkpt lat="45.14662" lon="6.09559">
        <ele>1904</ele>
        <time>2011-09-10T12:18:58Z</time>
      </trkpt>
      <trkpt lat="45.14613" lon="6.0954">
        <ele>1906</ele>
        <time>2011-09-10T12:19:25Z</time>
      </trkpt>
      <trkpt lat="45.14578" lon="6.09512">
        <ele>1912</ele>
        <time>2011-09-10T12:19:58Z</time>
      </trkpt>
      <trkpt lat="45.14568" lon="6.09501">
        <ele>1914</ele>
        <time>2011-09-10T12:20:10Z</time>
      </trkpt>
      <trkpt lat="45.14542" lon="6.09492">
        <ele>1918</ele>
        <time>2011-09-10T12:20:37Z</time>
      </trkpt>
      <trkpt lat="45.14497" lon="6.09477">
        <ele>1925</ele>
        <time>2011-09-10T12:21:21Z</time>
      </trkpt>
      <trkpt lat="45.14467" lon="6.09471">
        <ele>1929</ele>
        <time>2011-09-10T12:21:46Z</time>
      </trkpt>
      <trkpt lat="45.14447" lon="6.09475">
        <ele>1930</ele>
        <time>2011-09-10T12:22:10Z</time>
      </trkpt>
      <trkpt lat="45.1445" lon="6.09479">
        <ele>1931</ele>
        <time>2011-09-10T12:22:29Z</time>
      </trkpt>
      <trkpt lat="45.1445" lon="6.09479">
        <ele>1931</ele>
        <time>2011-09-10T12:23:34Z</time>
      </trkpt>
      <trkpt lat="45.14413" lon="6.09458">
        <ele>1938</ele>
        <time>2011-09-10T12:24:10Z</time>
      </trkpt>
      <trkpt lat="45.14402" lon="6.09456">
        <ele>1942</ele>
        <time>2011-09-10T12:24:31Z</time>
      </trkpt>
      <trkpt lat="45.14377" lon="6.09447">
        <ele>1946</ele>
        <time>2011-09-10T12:25:03Z</time>
      </trkpt>
      <trkpt lat="45.14368" lon="6.09447">
        <ele>1948</ele>
        <time>2011-09-10T12:25:26Z</time>
      </trkpt>
      <trkpt lat="45.1434" lon="6.09443">
        <ele>1954</ele>
        <time>2011-09-10T12:26:05Z</time>
      </trkpt>
      <trkpt lat="45.14317" lon="6.09432">
        <ele>1957</ele>
        <time>2011-09-10T12:26:40Z</time>
      </trkpt>
      <trkpt lat="45.14287" lon="6.09432">
        <ele>1964</ele>
        <time>2011-09-10T12:27:23Z</time>
      </trkpt>
      <trkpt lat="45.14269" lon="6.09432">
        <ele>1968</ele>
        <time>2011-09-10T12:27:52Z</time>
      </trkpt>
      <trkpt lat="45.1425" lon="6.09437">
        <ele>1974</ele>
        <time>2011-09-10T12:28:16Z</time>
      </trkpt>
      <trkpt lat="45.14231" lon="6.09469">
        <ele>1976</ele>
        <time>2011-09-10T12:28:51Z</time>
      </trkpt>
      <trkpt lat="45.14209" lon="6.09471">
        <ele>1979</ele>
        <time>2011-09-10T12:29:24Z</time>
      </trkpt>
      <trkpt lat="45.14201" lon="6.09471">
        <ele>1981</ele>
        <time>2011-09-10T12:29:48Z</time>
      </trkpt>
      <trkpt lat="45.14196" lon="6.09469">
        <ele>1979</ele>
        <time>2011-09-10T12:30:09Z</time>
      </trkpt>
      <trkpt lat="45.14199" lon="6.09471">
        <ele>1990</ele>
        <time>2011-09-10T12:32:40Z</time>
      </trkpt>
      <trkpt lat="45.14177" lon="6.09467">
        <ele>1995</ele>
        <time>2011-09-10T12:32:58Z</time>
      </trkpt>
      <trkpt lat="45.14166" lon="6.09471">
        <ele>1997</ele>
        <time>2011-09-10T12:33:10Z</time>
      </trkpt>
      <trkpt lat="45.14128" lon="6.09473">
        <ele>2002</ele>
        <time>2011-09-10T12:33:48Z</time>
      </trkpt>
      <trkpt lat="45.14113" lon="6.09482">
        <ele>2003</ele>
        <time>2011-09-10T12:34:19Z</time>
      </trkpt>
      <trkpt lat="45.14111" lon="6.09484">
        <ele>2005</ele>
        <time>2011-09-10T12:34:47Z</time>
      </trkpt>
      <trkpt lat="45.14091" lon="6.09482">
        <ele>2010</ele>
        <time>2011-09-10T12:35:10Z</time>
      </trkpt>
      <trkpt lat="45.14066" lon="6.09477">
        <ele>2015</ele>
        <time>2011-09-10T12:35:32Z</time>
      </trkpt>
      <trkpt lat="45.14063" lon="6.09475">
        <ele>2015</ele>
        <time>2011-09-10T12:35:34Z</time>
      </trkpt>
      <trkpt lat="45.14053" lon="6.09428">
        <ele>2018</ele>
        <time>2011-09-10T12:36:04Z</time>
      </trkpt>
      <trkpt lat="45.1405" lon="6.09419">
        <ele>2019</ele>
        <time>2011-09-10T12:36:10Z</time>
      </trkpt>
      <trkpt lat="45.14035" lon="6.09426">
        <ele>2024</ele>
        <time>2011-09-10T12:36:25Z</time>
      </trkpt>
      <trkpt lat="45.14014" lon="6.09469">
        <ele>2031</ele>
        <time>2011-09-10T12:36:59Z</time>
      </trkpt>
      <trkpt lat="45.13997" lon="6.09484">
        <ele>2030</ele>
        <time>2011-09-10T12:37:16Z</time>
      </trkpt>
      <trkpt lat="45.13995" lon="6.09482">
        <ele>2031</ele>
        <time>2011-09-10T12:37:19Z</time>
      </trkpt>
      <trkpt lat="45.13988" lon="6.09482">
        <ele>2032</ele>
        <time>2011-09-10T12:37:23Z</time>
      </trkpt>
      <trkpt lat="45.13982" lon="6.09484">
        <ele>2032</ele>
        <time>2011-09-10T12:37:28Z</time>
      </trkpt>
      <trkpt lat="45.13975" lon="6.09492">
        <ele>2033</ele>
        <time>2011-09-10T12:37:34Z</time>
      </trkpt>
      <trkpt lat="45.13928" lon="6.09524">
        <ele>2037</ele>
        <time>2011-09-10T12:38:09Z</time>
      </trkpt>
      <trkpt lat="45.13883" lon="6.09552">
        <ele>2042</ele>
        <time>2011-09-10T12:38:38Z</time>
      </trkpt>
      <trkpt lat="45.13872" lon="6.0955">
        <ele>2043</ele>
        <time>2011-09-10T12:38:46Z</time>
      </trkpt>
      <trkpt lat="45.13866" lon="6.09544">
        <ele>2044</ele>
        <time>2011-09-10T12:38:51Z</time>
      </trkpt>
      <trkpt lat="45.13881" lon="6.09501">
        <ele>2045</ele>
        <time>2011-09-10T12:39:02Z</time>
      </trkpt>
      <trkpt lat="45.13894" lon="6.09467">
        <ele>2048</ele>
        <time>2011-09-10T12:39:16Z</time>
      </trkpt>
      <trkpt lat="45.13881" lon="6.09404">
        <ele>2049</ele>
        <time>2011-09-10T12:39:40Z</time>
      </trkpt>
      <trkpt lat="45.13866" lon="6.09396">
        <ele>2046</ele>
        <time>2011-09-10T12:39:55Z</time>
      </trkpt>
      <trkpt lat="45.13866" lon="6.09389">
        <ele>2044</ele>
        <time>2011-09-10T12:40:28Z</time>
      </trkpt>
      <trkpt lat="45.13857" lon="6.09394">
        <ele>2041</ele>
        <time>2011-09-10T12:44:43Z</time>
      </trkpt>
      <trkpt lat="45.13868" lon="6.09396">
        <ele>2044</ele>
        <time>2011-09-10T12:45:28Z</time>
      </trkpt>
      <trkpt lat="45.13877" lon="6.09402">
        <ele>2045</ele>
        <time>2011-09-10T12:45:34Z</time>
      </trkpt>
      <trkpt lat="45.13885" lon="6.09387">
        <ele>2046</ele>
        <time>2011-09-10T12:45:39Z</time>
      </trkpt>
      <trkpt lat="45.13917" lon="6.09338">
        <ele>2046</ele>
        <time>2011-09-10T12:45:55Z</time>
      </trkpt>
      <trkpt lat="45.13943" lon="6.09303">
        <ele>2049</ele>
        <time>2011-09-10T12:46:16Z</time>
      </trkpt>
      <trkpt lat="45.1398" lon="6.09299">
        <ele>2050</ele>
        <time>2011-09-10T12:46:45Z</time>
      </trkpt>
      <trkpt lat="45.13978" lon="6.09293">
        <ele>2051</ele>
        <time>2011-09-10T12:47:08Z</time>
      </trkpt>
      <trkpt lat="45.13969" lon="6.09291">
        <ele>2052</ele>
        <time>2011-09-10T12:47:24Z</time>
      </trkpt>
      <trkpt lat="45.13956" lon="6.09282">
        <ele>2053</ele>
        <time>2011-09-10T12:47:54Z</time>
      </trkpt>
      <trkpt lat="45.13947" lon="6.09291">
        <ele>2053</ele>
        <time>2011-09-10T12:50:24Z</time>
      </trkpt>
      <trkpt lat="45.13952" lon="6.09293">
        <ele>2051</ele>
        <time>2011-09-10T12:50:44Z</time>
      </trkpt>
      <trkpt lat="45.13952" lon="6.09299">
        <ele>2047</ele>
        <time>2011-09-10T12:51:11Z</time>
      </trkpt>
      <trkpt lat="45.13947" lon="6.09297">
        <ele>2048</ele>
        <time>2011-09-10T12:51:22Z</time>
      </trkpt>
      <trkpt lat="45.13926" lon="6.09316">
        <ele>2048</ele>
        <time>2011-09-10T12:51:28Z</time>
      </trkpt>
      <trkpt lat="45.13872" lon="6.09383">
        <ele>2047</ele>
        <time>2011-09-10T12:51:41Z</time>
      </trkpt>
      <trkpt lat="45.13868" lon="6.09387">
        <ele>2049</ele>
        <time>2011-09-10T12:51:51Z</time>
      </trkpt>
      <trkpt lat="45.13868" lon="6.09381">
        <ele>2048</ele>
        <time>2011-09-10T12:54:57Z</time>
      </trkpt>
      <trkpt lat="45.1387" lon="6.09376">
        <ele>2049</ele>
        <time>2011-09-10T12:55:58Z</time>
      </trkpt>
      <trkpt lat="45.13872" lon="6.09364">
        <ele>2049</ele>
        <time>2011-09-10T12:56:05Z</time>
      </trkpt>
      <trkpt lat="45.13883" lon="6.09308">
        <ele>2048</ele>
        <time>2011-09-10T12:56:25Z</time>
      </trkpt>
      <trkpt lat="45.13879" lon="6.09235">
        <ele>2046</ele>
        <time>2011-09-10T12:56:40Z</time>
      </trkpt>
      <trkpt lat="45.13868" lon="6.09224">
        <ele>2042</ele>
        <time>2011-09-10T12:56:46Z</time>
      </trkpt>
      <trkpt lat="45.13829" lon="6.09177">
        <ele>2032</ele>
        <time>2011-09-10T12:57:01Z</time>
      </trkpt>
      <trkpt lat="45.13782" lon="6.09147">
        <ele>2028</ele>
        <time>2011-09-10T12:57:16Z</time>
      </trkpt>
      <trkpt lat="45.1375" lon="6.09125">
        <ele>2027</ele>
        <time>2011-09-10T12:57:31Z</time>
      </trkpt>
      <trkpt lat="45.13746" lon="6.09121">
        <ele>2027</ele>
        <time>2011-09-10T12:57:33Z</time>
      </trkpt>
      <trkpt lat="45.13739" lon="6.09128">
        <ele>2023</ele>
        <time>2011-09-10T12:57:44Z</time>
      </trkpt>
      <trkpt lat="45.13739" lon="6.09128">
        <ele>2022</ele>
        <time>2011-09-10T12:57:58Z</time>
      </trkpt>
      <trkpt lat="45.13729" lon="6.09136">
        <ele>2010</ele>
        <time>2011-09-10T13:00:46Z</time>
      </trkpt>
      <trkpt lat="45.13739" lon="6.09138">
        <ele>2016</ele>
        <time>2011-09-10T13:36:09Z</time>
      </trkpt>
      <trkpt lat="45.13746" lon="6.09134">
        <ele>2015</ele>
        <time>2011-09-10T13:36:22Z</time>
      </trkpt>
      <trkpt lat="45.13746" lon="6.09125">
        <ele>2015</ele>
        <time>2011-09-10T13:36:33Z</time>
      </trkpt>
      <trkpt lat="45.13744" lon="6.09121">
        <ele>2017</ele>
        <time>2011-09-10T13:36:54Z</time>
      </trkpt>
      <trkpt lat="45.13741" lon="6.09123">
        <ele>2016</ele>
        <time>2011-09-10T13:37:04Z</time>
      </trkpt>
      <trkpt lat="45.13716" lon="6.09121">
        <ele>2018</ele>
        <time>2011-09-10T13:37:19Z</time>
      </trkpt>
      <trkpt lat="45.13696" lon="6.09125">
        <ele>2018</ele>
        <time>2011-09-10T13:37:28Z</time>
      </trkpt>
      <trkpt lat="45.13684" lon="6.09119">
        <ele>2016</ele>
        <time>2011-09-10T13:37:37Z</time>
      </trkpt>
      <trkpt lat="45.13675" lon="6.09115">
        <ele>2017</ele>
        <time>2011-09-10T13:37:48Z</time>
      </trkpt>
      <trkpt lat="45.13662" lon="6.09121">
        <ele>2014</ele>
        <time>2011-09-10T13:38:10Z</time>
      </trkpt>
      <trkpt lat="45.13636" lon="6.09121">
        <ele>2014</ele>
        <time>2011-09-10T13:38:43Z</time>
      </trkpt>
      <trkpt lat="45.13623" lon="6.09128">
        <ele>2014</ele>
        <time>2011-09-10T13:39:04Z</time>
      </trkpt>
      <trkpt lat="45.13583" lon="6.09102">
        <ele>2016</ele>
        <time>2011-09-10T13:39:35Z</time>
      </trkpt>
      <trkpt lat="45.13568" lon="6.091">
        <ele>2017</ele>
        <time>2011-09-10T13:39:46Z</time>
      </trkpt>
      <trkpt lat="45.13544" lon="6.09104">
        <ele>2019</ele>
        <time>2011-09-10T13:40:08Z</time>
      </trkpt>
      <trkpt lat="45.13527" lon="6.09113">
        <ele>2021</ele>
        <time>2011-09-10T13:40:35Z</time>
      </trkpt>
      <trkpt lat="45.13503" lon="6.09119">
        <ele>2023</ele>
        <time>2011-09-10T13:41:00Z</time>
      </trkpt>
      <trkpt lat="45.13473" lon="6.09125">
        <ele>2029</ele>
        <time>2011-09-10T13:41:25Z</time>
      </trkpt>
      <trkpt lat="45.13467" lon="6.0913">
        <ele>2029</ele>
        <time>2011-09-10T13:41:50Z</time>
      </trkpt>
      <trkpt lat="45.13448" lon="6.09121">
        <ele>2029</ele>
        <time>2011-09-10T13:42:27Z</time>
      </trkpt>
      <trkpt lat="45.13448" lon="6.09121">
        <ele>2029</ele>
        <time>2011-09-10T13:42:28Z</time>
      </trkpt>
      <trkpt lat="45.13433" lon="6.0911">
        <ele>2029</ele>
        <time>2011-09-10T13:42:47Z</time>
      </trkpt>
      <trkpt lat="45.13424" lon="6.09102">
        <ele>2032</ele>
        <time>2011-09-10T13:43:00Z</time>
      </trkpt>
      <trkpt lat="45.13409" lon="6.09095">
        <ele>2033</ele>
        <time>2011-09-10T13:43:16Z</time>
      </trkpt>
      <trkpt lat="45.134" lon="6.091">
        <ele>2034</ele>
        <time>2011-09-10T13:43:26Z</time>
      </trkpt>
      <trkpt lat="45.13379" lon="6.09097">
        <ele>2036</ele>
        <time>2011-09-10T13:43:44Z</time>
      </trkpt>
      <trkpt lat="45.13362" lon="6.09104">
        <ele>2037</ele>
        <time>2011-09-10T13:44:09Z</time>
      </trkpt>
      <trkpt lat="45.13355" lon="6.09106">
        <ele>2036</ele>
        <time>2011-09-10T13:44:28Z</time>
      </trkpt>
      <trkpt lat="45.13349" lon="6.09104">
        <ele>2036</ele>
        <time>2011-09-10T13:44:32Z</time>
      </trkpt>
      <trkpt lat="45.13345" lon="6.09102">
        <ele>2036</ele>
        <time>2011-09-10T13:44:48Z</time>
      </trkpt>
      <trkpt lat="45.13342" lon="6.09089">
        <ele>2037</ele>
        <time>2011-09-10T13:45:18Z</time>
      </trkpt>
      <trkpt lat="45.13332" lon="6.0907">
        <ele>2037</ele>
        <time>2011-09-10T13:45:53Z</time>
      </trkpt>
      <trkpt lat="45.13342" lon="6.09093">
        <ele>2034</ele>
        <time>2011-09-10T13:46:25Z</time>
      </trkpt>
      <trkpt lat="45.1334" lon="6.09097">
        <ele>2034</ele>
        <time>2011-09-10T13:48:41Z</time>
      </trkpt>
      <trkpt lat="45.13327" lon="6.09093">
        <ele>2036</ele>
        <time>2011-09-10T13:48:48Z</time>
      </trkpt>
      <trkpt lat="45.13323" lon="6.09102">
        <ele>2040</ele>
        <time>2011-09-10T13:49:04Z</time>
      </trkpt>
      <trkpt lat="45.13317" lon="6.09102">
        <ele>2039</ele>
        <time>2011-09-10T13:49:48Z</time>
      </trkpt>
      <trkpt lat="45.13308" lon="6.09102">
        <ele>2040</ele>
        <time>2011-09-10T13:50:19Z</time>
      </trkpt>
      <trkpt lat="45.13282" lon="6.09087">
        <ele>2039</ele>
        <time>2011-09-10T13:50:50Z</time>
      </trkpt>
      <trkpt lat="45.13252" lon="6.09055">
        <ele>2039</ele>
        <time>2011-09-10T13:51:49Z</time>
      </trkpt>
      <trkpt lat="45.13248" lon="6.09055">
        <ele>2040</ele>
        <time>2011-09-10T13:52:16Z</time>
      </trkpt>
      <trkpt lat="45.13244" lon="6.09057">
        <ele>2045</ele>
        <time>2011-09-10T13:52:41Z</time>
      </trkpt>
      <trkpt lat="45.13216" lon="6.09057">
        <ele>2048</ele>
        <time>2011-09-10T13:53:36Z</time>
      </trkpt>
      <trkpt lat="45.13214" lon="6.09067">
        <ele>2053</ele>
        <time>2011-09-10T13:53:56Z</time>
      </trkpt>
      <trkpt lat="45.13201" lon="6.09074">
        <ele>2057</ele>
        <time>2011-09-10T13:54:21Z</time>
      </trkpt>
      <trkpt lat="45.13192" lon="6.09087">
        <ele>2064</ele>
        <time>2011-09-10T13:54:47Z</time>
      </trkpt>
      <trkpt lat="45.13186" lon="6.09091">
        <ele>2066</ele>
        <time>2011-09-10T13:55:03Z</time>
      </trkpt>
      <trkpt lat="45.13175" lon="6.09113">
        <ele>2068</ele>
        <time>2011-09-10T13:55:24Z</time>
      </trkpt>
      <trkpt lat="45.13145" lon="6.09134">
        <ele>2072</ele>
        <time>2011-09-10T13:56:07Z</time>
      </trkpt>
      <trkpt lat="45.13136" lon="6.09132">
        <ele>2076</ele>
        <time>2011-09-10T13:56:34Z</time>
      </trkpt>
      <trkpt lat="45.13128" lon="6.09117">
        <ele>2080</ele>
        <time>2011-09-10T13:56:54Z</time>
      </trkpt>
      <trkpt lat="45.13124" lon="6.09121">
        <ele>2083</ele>
        <time>2011-09-10T13:58:39Z</time>
      </trkpt>
      <trkpt lat="45.13081" lon="6.09115">
        <ele>2085</ele>
        <time>2011-09-10T13:58:57Z</time>
      </trkpt>
      <trkpt lat="45.13042" lon="6.09082">
        <ele>2085</ele>
        <time>2011-09-10T13:59:17Z</time>
      </trkpt>
      <trkpt lat="45.12999" lon="6.09057">
        <ele>2087</ele>
        <time>2011-09-10T13:59:43Z</time>
      </trkpt>
      <trkpt lat="45.12956" lon="6.09046">
        <ele>2088</ele>
        <time>2011-09-10T14:00:00Z</time>
      </trkpt>
      <trkpt lat="45.12943" lon="6.09048">
        <ele>2090</ele>
        <time>2011-09-10T14:00:12Z</time>
      </trkpt>
      <trkpt lat="45.12926" lon="6.09044">
        <ele>2088</ele>
        <time>2011-09-10T14:00:22Z</time>
      </trkpt>
      <trkpt lat="45.12892" lon="6.09018">
        <ele>2083</ele>
        <time>2011-09-10T14:00:33Z</time>
      </trkpt>
      <trkpt lat="45.12879" lon="6.0901">
        <ele>2081</ele>
        <time>2011-09-10T14:00:37Z</time>
      </trkpt>
      <trkpt lat="45.1287" lon="6.09007">
        <ele>2080</ele>
        <time>2011-09-10T14:00:41Z</time>
      </trkpt>
      <trkpt lat="45.12832" lon="6.08988">
        <ele>2080</ele>
        <time>2011-09-10T14:00:56Z</time>
      </trkpt>
      <trkpt lat="45.12757" lon="6.08956">
        <ele>2082</ele>
        <time>2011-09-10T14:01:24Z</time>
      </trkpt>
      <trkpt lat="45.12692" lon="6.08922">
        <ele>2079</ele>
        <time>2011-09-10T14:01:44Z</time>
      </trkpt>
      <trkpt lat="45.12688" lon="6.08919">
        <ele>2079</ele>
        <time>2011-09-10T14:01:46Z</time>
      </trkpt>
      <trkpt lat="45.12658" lon="6.08902">
        <ele>2076</ele>
        <time>2011-09-10T14:01:57Z</time>
      </trkpt>
      <trkpt lat="45.12651" lon="6.08894">
        <ele>2074</ele>
        <time>2011-09-10T14:01:59Z</time>
      </trkpt>
      <trkpt lat="45.12624" lon="6.08876">
        <ele>2073</ele>
        <time>2011-09-10T14:02:09Z</time>
      </trkpt>
      <trkpt lat="45.12604" lon="6.08864">
        <ele>2072</ele>
        <time>2011-09-10T14:02:31Z</time>
      </trkpt>
      <trkpt lat="45.12568" lon="6.08883">
        <ele>2072</ele>
        <time>2011-09-10T14:03:16Z</time>
      </trkpt>
      <trkpt lat="45.12561" lon="6.08894">
        <ele>2072</ele>
        <time>2011-09-10T14:03:40Z</time>
      </trkpt>
      <trkpt lat="45.12576" lon="6.08885">
        <ele>2072</ele>
        <time>2011-09-10T14:04:43Z</time>
      </trkpt>
      <trkpt lat="45.12566" lon="6.08876">
        <ele>2071</ele>
        <time>2011-09-10T14:05:53Z</time>
      </trkpt>
      <trkpt lat="45.12529" lon="6.08866">
        <ele>2069</ele>
        <time>2011-09-10T14:06:20Z</time>
      </trkpt>
      <trkpt lat="45.12523" lon="6.08861">
        <ele>2071</ele>
        <time>2011-09-10T14:06:30Z</time>
      </trkpt>
      <trkpt lat="45.12482" lon="6.08866">
        <ele>2071</ele>
        <time>2011-09-10T14:06:58Z</time>
      </trkpt>
      <trkpt lat="45.12463" lon="6.08857">
        <ele>2069</ele>
        <time>2011-09-10T14:07:27Z</time>
      </trkpt>
      <trkpt lat="45.12458" lon="6.08861">
        <ele>2069</ele>
        <time>2011-09-10T14:08:46Z</time>
      </trkpt>
      <trkpt lat="45.12443" lon="6.08876">
        <ele>2069</ele>
        <time>2011-09-10T14:09:16Z</time>
      </trkpt>
      <trkpt lat="45.12437" lon="6.08866">
        <ele>2065</ele>
        <time>2011-09-10T14:12:21Z</time>
      </trkpt>
      <trkpt lat="45.12381" lon="6.08887">
        <ele>2066</ele>
        <time>2011-09-10T14:13:01Z</time>
      </trkpt>
      <trkpt lat="45.1233" lon="6.08885">
        <ele>2068</ele>
        <time>2011-09-10T14:13:31Z</time>
      </trkpt>
      <trkpt lat="45.12252" lon="6.08885">
        <ele>2073</ele>
        <time>2011-09-10T14:14:11Z</time>
      </trkpt>
      <trkpt lat="45.12233" lon="6.08887">
        <ele>2073</ele>
        <time>2011-09-10T14:14:22Z</time>
      </trkpt>
      <trkpt lat="45.12212" lon="6.08866">
        <ele>2074</ele>
        <time>2011-09-10T14:14:35Z</time>
      </trkpt>
      <trkpt lat="45.12173" lon="6.08864">
        <ele>2077</ele>
        <time>2011-09-10T14:14:52Z</time>
      </trkpt>
      <trkpt lat="45.12104" lon="6.08849">
        <ele>2074</ele>
        <time>2011-09-10T14:15:15Z</time>
      </trkpt>
      <trkpt lat="45.12081" lon="6.08836">
        <ele>2074</ele>
        <time>2011-09-10T14:15:24Z</time>
      </trkpt>
      <trkpt lat="45.12081" lon="6.08834">
        <ele>2072</ele>
        <time>2011-09-10T14:17:04Z</time>
      </trkpt>
      <trkpt lat="45.12083" lon="6.08834">
        <ele>2076</ele>
        <time>2011-09-10T14:17:46Z</time>
      </trkpt>
      <trkpt lat="45.1207" lon="6.08816">
        <ele>2077</ele>
        <time>2011-09-10T14:18:00Z</time>
      </trkpt>
      <trkpt lat="45.12053" lon="6.08806">
        <ele>2075</ele>
        <time>2011-09-10T14:18:26Z</time>
      </trkpt>
      <trkpt lat="45.1204" lon="6.08801">
        <ele>2079</ele>
        <time>2011-09-10T14:18:38Z</time>
      </trkpt>
      <trkpt lat="45.12029" lon="6.08793">
        <ele>2078</ele>
        <time>2011-09-10T14:18:46Z</time>
      </trkpt>
      <trkpt lat="45.12027" lon="6.08791">
        <ele>2077</ele>
        <time>2011-09-10T14:18:49Z</time>
      </trkpt>
      <trkpt lat="45.12003" lon="6.08737">
        <ele>2077</ele>
        <time>2011-09-10T14:19:13Z</time>
      </trkpt>
      <trkpt lat="45.11961" lon="6.08692">
        <ele>2076</ele>
        <time>2011-09-10T14:19:31Z</time>
      </trkpt>
      <trkpt lat="45.1193" lon="6.08677">
        <ele>2076</ele>
        <time>2011-09-10T14:19:40Z</time>
      </trkpt>
      <trkpt lat="45.11907" lon="6.08673">
        <ele>2075</ele>
        <time>2011-09-10T14:19:49Z</time>
      </trkpt>
      <trkpt lat="45.11905" lon="6.0867">
        <ele>2075</ele>
        <time>2011-09-10T14:19:50Z</time>
      </trkpt>
      <trkpt lat="45.11883" lon="6.08666">
        <ele>2072</ele>
        <time>2011-09-10T14:20:04Z</time>
      </trkpt>
      <trkpt lat="45.1187" lon="6.08664">
        <ele>2070</ele>
        <time>2011-09-10T14:20:36Z</time>
      </trkpt>
      <trkpt lat="45.11853" lon="6.08679">
        <ele>2071</ele>
        <time>2011-09-10T14:21:22Z</time>
      </trkpt>
      <trkpt lat="45.11827" lon="6.08677">
        <ele>2070</ele>
        <time>2011-09-10T14:21:45Z</time>
      </trkpt>
      <trkpt lat="45.11821" lon="6.08673">
        <ele>2070</ele>
        <time>2011-09-10T14:21:59Z</time>
      </trkpt>
      <trkpt lat="45.11815" lon="6.0867">
        <ele>2070</ele>
        <time>2011-09-10T14:22:31Z</time>
      </trkpt>
      <trkpt lat="45.11808" lon="6.08655">
        <ele>2069</ele>
        <time>2011-09-10T14:24:59Z</time>
      </trkpt>
      <trkpt lat="45.11793" lon="6.08651">
        <ele>2070</ele>
        <time>2011-09-10T14:25:15Z</time>
      </trkpt>
      <trkpt lat="45.11793" lon="6.08651">
        <ele>2070</ele>
        <time>2011-09-10T14:25:16Z</time>
      </trkpt>
      <trkpt lat="45.11789" lon="6.08623">
        <ele>2072</ele>
        <time>2011-09-10T14:25:43Z</time>
      </trkpt>
      <trkpt lat="45.1177" lon="6.08593">
        <ele>2071</ele>
        <time>2011-09-10T14:26:20Z</time>
      </trkpt>
      <trkpt lat="45.11759" lon="6.086">
        <ele>2071</ele>
        <time>2011-09-10T14:26:41Z</time>
      </trkpt>
      <trkpt lat="45.11744" lon="6.086">
        <ele>2069</ele>
        <time>2011-09-10T14:27:01Z</time>
      </trkpt>
      <trkpt lat="45.11737" lon="6.08606">
        <ele>2068</ele>
        <time>2011-09-10T14:27:20Z</time>
      </trkpt>
      <trkpt lat="45.1172" lon="6.0861">
        <ele>2068</ele>
        <time>2011-09-10T14:27:49Z</time>
      </trkpt>
      <trkpt lat="45.1172" lon="6.08608">
        <ele>2068</ele>
        <time>2011-09-10T14:27:51Z</time>
      </trkpt>
      <trkpt lat="45.11709" lon="6.08591">
        <ele>2068</ele>
        <time>2011-09-10T14:28:09Z</time>
      </trkpt>
      <trkpt lat="45.11701" lon="6.08582">
        <ele>2067</ele>
        <time>2011-09-10T14:28:26Z</time>
      </trkpt>
      <trkpt lat="45.11684" lon="6.0858">
        <ele>2066</ele>
        <time>2011-09-10T14:28:50Z</time>
      </trkpt>
      <trkpt lat="45.11677" lon="6.08576">
        <ele>2066</ele>
        <time>2011-09-10T14:28:59Z</time>
      </trkpt>
      <trkpt lat="45.11669" lon="6.08542">
        <ele>2064</ele>
        <time>2011-09-10T14:29:12Z</time>
      </trkpt>
      <trkpt lat="45.1166" lon="6.08484">
        <ele>2063</ele>
        <time>2011-09-10T14:29:46Z</time>
      </trkpt>
      <trkpt lat="45.11658" lon="6.08484">
        <ele>2061</ele>
        <time>2011-09-10T14:30:07Z</time>
      </trkpt>
      <trkpt lat="45.11656" lon="6.08484">
        <ele>2061</ele>
        <time>2011-09-10T14:30:11Z</time>
      </trkpt>
      <trkpt lat="45.1163" lon="6.08475">
        <ele>2061</ele>
        <time>2011-09-10T14:30:22Z</time>
      </trkpt>
      <trkpt lat="45.11568" lon="6.0846">
        <ele>2063</ele>
        <time>2011-09-10T14:30:53Z</time>
      </trkpt>
      <trkpt lat="45.11523" lon="6.08456">
        <ele>2064</ele>
        <time>2011-09-10T14:31:16Z</time>
      </trkpt>
      <trkpt lat="45.11518" lon="6.08456">
        <ele>2064</ele>
        <time>2011-09-10T14:31:18Z</time>
      </trkpt>
      <trkpt lat="45.11503" lon="6.08454">
        <ele>2065</ele>
        <time>2011-09-10T14:31:41Z</time>
      </trkpt>
      <trkpt lat="45.11491" lon="6.08434">
        <ele>2067</ele>
        <time>2011-09-10T14:32:12Z</time>
      </trkpt>
      <trkpt lat="45.11491" lon="6.0843">
        <ele>2067</ele>
        <time>2011-09-10T14:34:02Z</time>
      </trkpt>
      <trkpt lat="45.11482" lon="6.08434">
        <ele>2067</ele>
        <time>2011-09-10T14:34:17Z</time>
      </trkpt>
      <trkpt lat="45.11465" lon="6.08428">
        <ele>2067</ele>
        <time>2011-09-10T14:34:36Z</time>
      </trkpt>
      <trkpt lat="45.11452" lon="6.08415">
        <ele>2067</ele>
        <time>2011-09-10T14:34:55Z</time>
      </trkpt>
      <trkpt lat="45.11443" lon="6.08409">
        <ele>2067</ele>
        <time>2011-09-10T14:35:20Z</time>
      </trkpt>
      <trkpt lat="45.11428" lon="6.08404">
        <ele>2067</ele>
        <time>2011-09-10T14:35:33Z</time>
      </trkpt>
      <trkpt lat="45.11405" lon="6.08419">
        <ele>2067</ele>
        <time>2011-09-10T14:35:49Z</time>
      </trkpt>
      <trkpt lat="45.11379" lon="6.08445">
        <ele>2070</ele>
        <time>2011-09-10T14:36:06Z</time>
      </trkpt>
      <trkpt lat="45.11364" lon="6.08445">
        <ele>2076</ele>
        <time>2011-09-10T14:36:26Z</time>
      </trkpt>
      <trkpt lat="45.11358" lon="6.08449">
        <ele>2076</ele>
        <time>2011-09-10T14:36:41Z</time>
      </trkpt>
      <trkpt lat="45.1134" lon="6.08462">
        <ele>2077</ele>
        <time>2011-09-10T14:36:57Z</time>
      </trkpt>
      <trkpt lat="45.11336" lon="6.08484">
        <ele>2079</ele>
        <time>2011-09-10T14:37:18Z</time>
      </trkpt>
      <trkpt lat="45.11345" lon="6.0849">
        <ele>2081</ele>
        <time>2011-09-10T14:37:28Z</time>
      </trkpt>
      <trkpt lat="45.11381" lon="6.08531">
        <ele>2084</ele>
        <time>2011-09-10T14:38:16Z</time>
      </trkpt>
      <trkpt lat="45.11385" lon="6.08533">
        <ele>2085</ele>
        <time>2011-09-10T14:38:34Z</time>
      </trkpt>
      <trkpt lat="45.11364" lon="6.08501">
        <ele>2086</ele>
        <time>2011-09-10T14:38:56Z</time>
      </trkpt>
      <trkpt lat="45.11332" lon="6.0846">
        <ele>2083</ele>
        <time>2011-09-10T14:39:10Z</time>
      </trkpt>
      <trkpt lat="45.11276" lon="6.08415">
        <ele>2080</ele>
        <time>2011-09-10T14:39:33Z</time>
      </trkpt>
      <trkpt lat="45.11261" lon="6.08419">
        <ele>2079</ele>
        <time>2011-09-10T14:39:39Z</time>
      </trkpt>
      <trkpt lat="45.11242" lon="6.08413">
        <ele>2076</ele>
        <time>2011-09-10T14:39:50Z</time>
      </trkpt>
      <trkpt lat="45.11237" lon="6.08411">
        <ele>2076</ele>
        <time>2011-09-10T14:39:52Z</time>
      </trkpt>
      <trkpt lat="45.11212" lon="6.08417">
        <ele>2075</ele>
        <time>2011-09-10T14:40:04Z</time>
      </trkpt>
      <trkpt lat="45.1119" lon="6.08404">
        <ele>2075</ele>
        <time>2011-09-10T14:40:16Z</time>
      </trkpt>
      <trkpt lat="45.11147" lon="6.08379">
        <ele>2075</ele>
        <time>2011-09-10T14:40:34Z</time>
      </trkpt>
      <trkpt lat="45.11111" lon="6.08361">
        <ele>2075</ele>
        <time>2011-09-10T14:40:49Z</time>
      </trkpt>
      <trkpt lat="45.11055" lon="6.08349">
        <ele>2075</ele>
        <time>2011-09-10T14:41:01Z</time>
      </trkpt>
      <trkpt lat="45.11051" lon="6.08349">
        <ele>2075</ele>
        <time>2011-09-10T14:41:03Z</time>
      </trkpt>
      <trkpt lat="45.11049" lon="6.08351">
        <ele>2075</ele>
        <time>2011-09-10T14:41:14Z</time>
      </trkpt>
      <trkpt lat="45.11068" lon="6.08381">
        <ele>2074</ele>
        <time>2011-09-10T14:41:29Z</time>
      </trkpt>
      <trkpt lat="45.11072" lon="6.08402">
        <ele>2074</ele>
        <time>2011-09-10T14:41:47Z</time>
      </trkpt>
      <trkpt lat="45.1107" lon="6.08402">
        <ele>2074</ele>
        <time>2011-09-10T14:41:48Z</time>
      </trkpt>
      <trkpt lat="45.11042" lon="6.08387">
        <ele>2074</ele>
        <time>2011-09-10T14:42:01Z</time>
      </trkpt>
      <trkpt lat="45.11034" lon="6.08385">
        <ele>2074</ele>
        <time>2011-09-10T14:42:03Z</time>
      </trkpt>
      <trkpt lat="45.1101" lon="6.0837">
        <ele>2074</ele>
        <time>2011-09-10T14:42:07Z</time>
      </trkpt>
      <trkpt lat="45.10997" lon="6.08364">
        <ele>2074</ele>
        <time>2011-09-10T14:42:09Z</time>
      </trkpt>
      <trkpt lat="45.10958" lon="6.08346">
        <ele>2074</ele>
        <time>2011-09-10T14:42:19Z</time>
      </trkpt>
      <trkpt lat="45.10928" lon="6.08334">
        <ele>2074</ele>
        <time>2011-09-10T14:42:30Z</time>
      </trkpt>
      <trkpt lat="45.109" lon="6.08327">
        <ele>2073</ele>
        <time>2011-09-10T14:42:43Z</time>
      </trkpt>
      <trkpt lat="45.1086" lon="6.08297">
        <ele>2071</ele>
        <time>2011-09-10T14:43:02Z</time>
      </trkpt>
      <trkpt lat="45.10845" lon="6.08256">
        <ele>2061</ele>
        <time>2011-09-10T14:43:16Z</time>
      </trkpt>
      <trkpt lat="45.10847" lon="6.08256">
        <ele>2057</ele>
        <time>2011-09-10T14:43:26Z</time>
      </trkpt>
      <trkpt lat="45.10843" lon="6.08246">
        <ele>2047</ele>
        <time>2011-09-10T14:47:11Z</time>
      </trkpt>
      <trkpt lat="45.10845" lon="6.08211">
        <ele>2045</ele>
        <time>2011-09-10T14:47:22Z</time>
      </trkpt>
      <trkpt lat="45.10821" lon="6.08205">
        <ele>2044</ele>
        <time>2011-09-10T14:47:37Z</time>
      </trkpt>
      <trkpt lat="45.1075" lon="6.08231">
        <ele>2043</ele>
        <time>2011-09-10T14:48:10Z</time>
      </trkpt>
      <trkpt lat="45.10737" lon="6.08233">
        <ele>2043</ele>
        <time>2011-09-10T14:48:17Z</time>
      </trkpt>
      <trkpt lat="45.10731" lon="6.08246">
        <ele>2043</ele>
        <time>2011-09-10T14:48:22Z</time>
      </trkpt>
      <trkpt lat="45.1072" lon="6.08226">
        <ele>2044</ele>
        <time>2011-09-10T14:48:32Z</time>
      </trkpt>
      <trkpt lat="45.10731" lon="6.08175">
        <ele>2047</ele>
        <time>2011-09-10T14:48:51Z</time>
      </trkpt>
      <trkpt lat="45.10735" lon="6.08113">
        <ele>2048</ele>
        <time>2011-09-10T14:49:19Z</time>
      </trkpt>
      <trkpt lat="45.10733" lon="6.08117">
        <ele>2048</ele>
        <time>2011-09-10T14:49:47Z</time>
      </trkpt>
      <trkpt lat="45.1074" lon="6.08147">
        <ele>2047</ele>
        <time>2011-09-10T14:50:09Z</time>
      </trkpt>
      <trkpt lat="45.1074" lon="6.08074">
        <ele>2039</ele>
        <time>2011-09-10T14:50:25Z</time>
      </trkpt>
      <trkpt lat="45.10729" lon="6.08022">
        <ele>2036</ele>
        <time>2011-09-10T14:50:38Z</time>
      </trkpt>
      <trkpt lat="45.10729" lon="6.07971">
        <ele>2031</ele>
        <time>2011-09-10T14:50:53Z</time>
      </trkpt>
      <trkpt lat="45.10725" lon="6.07911">
        <ele>2027</ele>
        <time>2011-09-10T14:51:08Z</time>
      </trkpt>
      <trkpt lat="45.10744" lon="6.07808">
        <ele>2018</ele>
        <time>2011-09-10T14:51:24Z</time>
      </trkpt>
      <trkpt lat="45.10755" lon="6.07784">
        <ele>2016</ele>
        <time>2011-09-10T14:51:27Z</time>
      </trkpt>
      <trkpt lat="45.10763" lon="6.07771">
        <ele>2016</ele>
        <time>2011-09-10T14:51:29Z</time>
      </trkpt>
      <trkpt lat="45.108" lon="6.07707">
        <ele>2012</ele>
        <time>2011-09-10T14:51:40Z</time>
      </trkpt>
      <trkpt lat="45.1081" lon="6.07688">
        <ele>2010</ele>
        <time>2011-09-10T14:51:49Z</time>
      </trkpt>
      <trkpt lat="45.1081" lon="6.07692">
        <ele>2008</ele>
        <time>2011-09-10T14:52:20Z</time>
      </trkpt>
      <trkpt lat="45.10813" lon="6.07694">
        <ele>2007</ele>
        <time>2011-09-10T14:54:29Z</time>
      </trkpt>
      <trkpt lat="45.1081" lon="6.07679">
        <ele>2006</ele>
        <time>2011-09-10T14:54:34Z</time>
      </trkpt>
      <trkpt lat="45.1083" lon="6.07617">
        <ele>2003</ele>
        <time>2011-09-10T14:54:47Z</time>
      </trkpt>
      <trkpt lat="45.1084" lon="6.076">
        <ele>2003</ele>
        <time>2011-09-10T14:54:51Z</time>
      </trkpt>
      <trkpt lat="45.10866" lon="6.07578">
        <ele>2001</ele>
        <time>2011-09-10T14:54:58Z</time>
      </trkpt>
      <trkpt lat="45.10879" lon="6.07527">
        <ele>2000</ele>
        <time>2011-09-10T14:55:09Z</time>
      </trkpt>
      <trkpt lat="45.10885" lon="6.07501">
        <ele>1999</ele>
        <time>2011-09-10T14:55:14Z</time>
      </trkpt>
      <trkpt lat="45.10892" lon="6.07492">
        <ele>1999</ele>
        <time>2011-09-10T14:55:16Z</time>
      </trkpt>
      <trkpt lat="45.10916" lon="6.07465">
        <ele>1997</ele>
        <time>2011-09-10T14:55:23Z</time>
      </trkpt>
      <trkpt lat="45.10971" lon="6.07379">
        <ele>1996</ele>
        <time>2011-09-10T14:55:44Z</time>
      </trkpt>
      <trkpt lat="45.10967" lon="6.0737">
        <ele>1995</ele>
        <time>2011-09-10T14:55:57Z</time>
      </trkpt>
      <trkpt lat="45.10954" lon="6.07357">
        <ele>1993</ele>
        <time>2011-09-10T14:56:01Z</time>
      </trkpt>
      <trkpt lat="45.10941" lon="6.07347">
        <ele>1992</ele>
        <time>2011-09-10T14:56:04Z</time>
      </trkpt>
      <trkpt lat="45.1092" lon="6.07316">
        <ele>1988</ele>
        <time>2011-09-10T14:56:11Z</time>
      </trkpt>
      <trkpt lat="45.10898" lon="6.07218">
        <ele>1986</ele>
        <time>2011-09-10T14:56:35Z</time>
      </trkpt>
      <trkpt lat="45.1089" lon="6.07153">
        <ele>1985</ele>
        <time>2011-09-10T14:56:55Z</time>
      </trkpt>
      <trkpt lat="45.10862" lon="6.07095">
        <ele>1985</ele>
        <time>2011-09-10T14:57:14Z</time>
      </trkpt>
      <trkpt lat="45.10855" lon="6.07038">
        <ele>1984</ele>
        <time>2011-09-10T14:57:30Z</time>
      </trkpt>
      <trkpt lat="45.10877" lon="6.0699">
        <ele>1984</ele>
        <time>2011-09-10T14:57:52Z</time>
      </trkpt>
      <trkpt lat="45.10888" lon="6.06965">
        <ele>1984</ele>
        <time>2011-09-10T14:58:04Z</time>
      </trkpt>
      <trkpt lat="45.10885" lon="6.06956">
        <ele>1983</ele>
        <time>2011-09-10T14:58:09Z</time>
      </trkpt>
      <trkpt lat="45.10879" lon="6.06915">
        <ele>1983</ele>
        <time>2011-09-10T14:58:29Z</time>
      </trkpt>
      <trkpt lat="45.10873" lon="6.06877">
        <ele>1984</ele>
        <time>2011-09-10T14:58:45Z</time>
      </trkpt>
      <trkpt lat="45.10853" lon="6.06829">
        <ele>1984</ele>
        <time>2011-09-10T14:59:06Z</time>
      </trkpt>
      <trkpt lat="45.10832" lon="6.06791">
        <ele>1984</ele>
        <time>2011-09-10T14:59:26Z</time>
      </trkpt>
      <trkpt lat="45.10815" lon="6.06754">
        <ele>1984</ele>
        <time>2011-09-10T14:59:44Z</time>
      </trkpt>
      <trkpt lat="45.10798" lon="6.06703">
        <ele>1987</ele>
        <time>2011-09-10T15:00:05Z</time>
      </trkpt>
      <trkpt lat="45.10772" lon="6.06638">
        <ele>1987</ele>
        <time>2011-09-10T15:00:33Z</time>
      </trkpt>
      <trkpt lat="45.10774" lon="6.06634">
        <ele>1988</ele>
        <time>2011-09-10T15:00:53Z</time>
      </trkpt>
      <trkpt lat="45.1077" lon="6.06638">
        <ele>1994</ele>
        <time>2011-09-10T15:03:22Z</time>
      </trkpt>
      <trkpt lat="45.1077" lon="6.0663">
        <ele>1995</ele>
        <time>2011-09-10T15:03:26Z</time>
      </trkpt>
      <trkpt lat="45.1077" lon="6.06615">
        <ele>1996</ele>
        <time>2011-09-10T15:03:31Z</time>
      </trkpt>
      <trkpt lat="45.10776" lon="6.06606">
        <ele>1996</ele>
        <time>2011-09-10T15:03:35Z</time>
      </trkpt>
      <trkpt lat="45.10813" lon="6.06561">
        <ele>1999</ele>
        <time>2011-09-10T15:04:04Z</time>
      </trkpt>
      <trkpt lat="45.1081" lon="6.0654">
        <ele>2000</ele>
        <time>2011-09-10T15:04:15Z</time>
      </trkpt>
      <trkpt lat="45.10798" lon="6.06512">
        <ele>1997</ele>
        <time>2011-09-10T15:04:33Z</time>
      </trkpt>
      <trkpt lat="45.108" lon="6.0651">
        <ele>1997</ele>
        <time>2011-09-10T15:04:47Z</time>
      </trkpt>
      <trkpt lat="45.10802" lon="6.0651">
        <ele>1998</ele>
        <time>2011-09-10T15:05:12Z</time>
      </trkpt>
      <trkpt lat="45.10802" lon="6.0651">
        <ele>1997</ele>
        <time>2011-09-10T15:06:12Z</time>
      </trkpt>
      <trkpt lat="45.10802" lon="6.06508">
        <ele>1997</ele>
        <time>2011-09-10T15:06:29Z</time>
      </trkpt>
      <trkpt lat="45.10813" lon="6.0651">
        <ele>1994</ele>
        <time>2011-09-10T15:06:35Z</time>
      </trkpt>
      <trkpt lat="45.1086" lon="6.06523">
        <ele>1985</ele>
        <time>2011-09-10T15:06:45Z</time>
      </trkpt>
      <trkpt lat="45.1095" lon="6.06535">
        <ele>1979</ele>
        <time>2011-09-10T15:07:08Z</time>
      </trkpt>
      <trkpt lat="45.10988" lon="6.0654">
        <ele>1973</ele>
        <time>2011-09-10T15:07:19Z</time>
      </trkpt>
      <trkpt lat="45.11006" lon="6.06544">
        <ele>1970</ele>
        <time>2011-09-10T15:07:24Z</time>
      </trkpt>
      <trkpt lat="45.11014" lon="6.06544">
        <ele>1969</ele>
        <time>2011-09-10T15:07:26Z</time>
      </trkpt>
      <trkpt lat="45.11027" lon="6.06546">
        <ele>1967</ele>
        <time>2011-09-10T15:07:29Z</time>
      </trkpt>
      <trkpt lat="45.11044" lon="6.06542">
        <ele>1965</ele>
        <time>2011-09-10T15:07:38Z</time>
      </trkpt>
      <trkpt lat="45.11046" lon="6.06544">
        <ele>1965</ele>
        <time>2011-09-10T15:07:48Z</time>
      </trkpt>
      <trkpt lat="45.11046" lon="6.06542">
        <ele>1965</ele>
        <time>2011-09-10T15:09:25Z</time>
      </trkpt>
      <trkpt lat="45.11046" lon="6.06542">
        <ele>1965</ele>
        <time>2011-09-10T15:10:17Z</time>
      </trkpt>
      <trkpt lat="45.11061" lon="6.06544">
        <ele>1962</ele>
        <time>2011-09-10T15:10:22Z</time>
      </trkpt>
      <trkpt lat="45.11113" lon="6.06546">
        <ele>1957</ele>
        <time>2011-09-10T15:10:34Z</time>
      </trkpt>
      <trkpt lat="45.11134" lon="6.06542">
        <ele>1954</ele>
        <time>2011-09-10T15:10:40Z</time>
      </trkpt>
      <trkpt lat="45.11175" lon="6.06529">
        <ele>1948</ele>
        <time>2011-09-10T15:10:52Z</time>
      </trkpt>
      <trkpt lat="45.11188" lon="6.06527">
        <ele>1945</ele>
        <time>2011-09-10T15:10:55Z</time>
      </trkpt>
      <trkpt lat="45.11205" lon="6.06523">
        <ele>1942</ele>
        <time>2011-09-10T15:10:59Z</time>
      </trkpt>
      <trkpt lat="45.11233" lon="6.06514">
        <ele>1940</ele>
        <time>2011-09-10T15:11:07Z</time>
      </trkpt>
      <trkpt lat="45.11267" lon="6.06493">
        <ele>1929</ele>
        <time>2011-09-10T15:11:19Z</time>
      </trkpt>
      <trkpt lat="45.11287" lon="6.06475">
        <ele>1925</ele>
        <time>2011-09-10T15:11:28Z</time>
      </trkpt>
      <trkpt lat="45.11287" lon="6.06458">
        <ele>1920</ele>
        <time>2011-09-10T15:11:36Z</time>
      </trkpt>
      <trkpt lat="45.11289" lon="6.06454">
        <ele>1918</ele>
        <time>2011-09-10T15:11:39Z</time>
      </trkpt>
      <trkpt lat="45.113" lon="6.0645">
        <ele>1915</ele>
        <time>2011-09-10T15:11:51Z</time>
      </trkpt>
      <trkpt lat="45.11302" lon="6.0645">
        <ele>1915</ele>
        <time>2011-09-10T15:11:52Z</time>
      </trkpt>
      <trkpt lat="45.11291" lon="6.06441">
        <ele>1911</ele>
        <time>2011-09-10T15:11:58Z</time>
      </trkpt>
      <trkpt lat="45.11295" lon="6.06437">
        <ele>1909</ele>
        <time>2011-09-10T15:12:02Z</time>
      </trkpt>
      <trkpt lat="45.1134" lon="6.06426">
        <ele>1900</ele>
        <time>2011-09-10T15:12:20Z</time>
      </trkpt>
      <trkpt lat="45.11362" lon="6.06428">
        <ele>1897</ele>
        <time>2011-09-10T15:12:28Z</time>
      </trkpt>
      <trkpt lat="45.11377" lon="6.06424">
        <ele>1892</ele>
        <time>2011-09-10T15:12:35Z</time>
      </trkpt>
      <trkpt lat="45.11379" lon="6.06424">
        <ele>1891</ele>
        <time>2011-09-10T15:12:37Z</time>
      </trkpt>
      <trkpt lat="45.11385" lon="6.06413">
        <ele>1887</ele>
        <time>2011-09-10T15:12:44Z</time>
      </trkpt>
      <trkpt lat="45.11392" lon="6.06413">
        <ele>1886</ele>
        <time>2011-09-10T15:12:47Z</time>
      </trkpt>
      <trkpt lat="45.11392" lon="6.06398">
        <ele>1882</ele>
        <time>2011-09-10T15:12:55Z</time>
      </trkpt>
      <trkpt lat="45.1139" lon="6.06387">
        <ele>1878</ele>
        <time>2011-09-10T15:13:03Z</time>
      </trkpt>
      <trkpt lat="45.11403" lon="6.06375">
        <ele>1874</ele>
        <time>2011-09-10T15:13:10Z</time>
      </trkpt>
      <trkpt lat="45.11461" lon="6.06355">
        <ele>1867</ele>
        <time>2011-09-10T15:13:29Z</time>
      </trkpt>
      <trkpt lat="45.11467" lon="6.06357">
        <ele>1866</ele>
        <time>2011-09-10T15:13:32Z</time>
      </trkpt>
      <trkpt lat="45.11471" lon="6.06342">
        <ele>1861</ele>
        <time>2011-09-10T15:13:40Z</time>
      </trkpt>
      <trkpt lat="45.11484" lon="6.06336">
        <ele>1857</ele>
        <time>2011-09-10T15:13:45Z</time>
      </trkpt>
      <trkpt lat="45.11488" lon="6.06334">
        <ele>1856</ele>
        <time>2011-09-10T15:13:47Z</time>
      </trkpt>
      <trkpt lat="45.11495" lon="6.06347">
        <ele>1855</ele>
        <time>2011-09-10T15:13:55Z</time>
      </trkpt>
      <trkpt lat="45.11499" lon="6.06344">
        <ele>1854</ele>
        <time>2011-09-10T15:14:00Z</time>
      </trkpt>
      <trkpt lat="45.11508" lon="6.06336">
        <ele>1850</ele>
        <time>2011-09-10T15:14:19Z</time>
      </trkpt>
      <trkpt lat="45.11521" lon="6.06329">
        <ele>1848</ele>
        <time>2011-09-10T15:14:46Z</time>
      </trkpt>
      <trkpt lat="45.11529" lon="6.06323">
        <ele>1841</ele>
        <time>2011-09-10T15:15:04Z</time>
      </trkpt>
      <trkpt lat="45.1154" lon="6.06312">
        <ele>1838</ele>
        <time>2011-09-10T15:15:28Z</time>
      </trkpt>
      <trkpt lat="45.11589" lon="6.06293">
        <ele>1832</ele>
        <time>2011-09-10T15:15:38Z</time>
      </trkpt>
      <trkpt lat="45.11589" lon="6.06272">
        <ele>1824</ele>
        <time>2011-09-10T15:15:45Z</time>
      </trkpt>
      <trkpt lat="45.11611" lon="6.06244">
        <ele>1813</ele>
        <time>2011-09-10T15:15:58Z</time>
      </trkpt>
      <trkpt lat="45.11641" lon="6.0622">
        <ele>1809</ele>
        <time>2011-09-10T15:16:11Z</time>
      </trkpt>
      <trkpt lat="45.11656" lon="6.06211">
        <ele>1807</ele>
        <time>2011-09-10T15:16:29Z</time>
      </trkpt>
      <trkpt lat="45.11641" lon="6.06214">
        <ele>1793</ele>
        <time>2011-09-10T15:18:30Z</time>
      </trkpt>
      <trkpt lat="45.11645" lon="6.06216">
        <ele>1792</ele>
        <time>2011-09-10T15:18:52Z</time>
      </trkpt>
      <trkpt lat="45.11645" lon="6.06201">
        <ele>1791</ele>
        <time>2011-09-10T15:18:58Z</time>
      </trkpt>
      <trkpt lat="45.11639" lon="6.06199">
        <ele>1791</ele>
        <time>2011-09-10T15:19:01Z</time>
      </trkpt>
      <trkpt lat="45.11632" lon="6.06194">
        <ele>1789</ele>
        <time>2011-09-10T15:19:07Z</time>
      </trkpt>
      <trkpt lat="45.11634" lon="6.06186">
        <ele>1786</ele>
        <time>2011-09-10T15:19:16Z</time>
      </trkpt>
      <trkpt lat="45.11639" lon="6.06181">
        <ele>1784</ele>
        <time>2011-09-10T15:19:21Z</time>
      </trkpt>
      <trkpt lat="45.11643" lon="6.0616">
        <ele>1781</ele>
        <time>2011-09-10T15:19:40Z</time>
      </trkpt>
      <trkpt lat="45.11667" lon="6.06156">
        <ele>1775</ele>
        <time>2011-09-10T15:19:54Z</time>
      </trkpt>
      <trkpt lat="45.11675" lon="6.06149">
        <ele>1777</ele>
        <time>2011-09-10T15:20:04Z</time>
      </trkpt>
      <trkpt lat="45.11692" lon="6.06166">
        <ele>1776</ele>
        <time>2011-09-10T15:20:27Z</time>
      </trkpt>
      <trkpt lat="45.11694" lon="6.06164">
        <ele>1776</ele>
        <time>2011-09-10T15:21:01Z</time>
      </trkpt>
      <trkpt lat="45.11682" lon="6.06149">
        <ele>1775</ele>
        <time>2011-09-10T15:23:00Z</time>
      </trkpt>
      <trkpt lat="45.11697" lon="6.06147">
        <ele>1775</ele>
        <time>2011-09-10T15:23:16Z</time>
      </trkpt>
      <trkpt lat="45.11714" lon="6.06136">
        <ele>1774</ele>
        <time>2011-09-10T15:23:35Z</time>
      </trkpt>
      <trkpt lat="45.11709" lon="6.06108">
        <ele>1774</ele>
        <time>2011-09-10T15:23:58Z</time>
      </trkpt>
      <trkpt lat="45.11688" lon="6.06087">
        <ele>1773</ele>
        <time>2011-09-10T15:24:20Z</time>
      </trkpt>
      <trkpt lat="45.11677" lon="6.06074">
        <ele>1773</ele>
        <time>2011-09-10T15:25:08Z</time>
      </trkpt>
      <trkpt lat="45.11669" lon="6.06068">
        <ele>1763</ele>
        <time>2011-09-10T15:26:11Z</time>
      </trkpt>
      <trkpt lat="45.11673" lon="6.0607">
        <ele>1759</ele>
        <time>2011-09-10T15:26:28Z</time>
      </trkpt>
      <trkpt lat="45.11688" lon="6.06053">
        <ele>1751</ele>
        <time>2011-09-10T15:26:38Z</time>
      </trkpt>
      <trkpt lat="45.11688" lon="6.06055">
        <ele>1749</ele>
        <time>2011-09-10T15:26:39Z</time>
      </trkpt>
      <trkpt lat="45.11692" lon="6.0605">
        <ele>1747</ele>
        <time>2011-09-10T15:26:44Z</time>
      </trkpt>
      <trkpt lat="45.11697" lon="6.0605">
        <ele>1744</ele>
        <time>2011-09-10T15:26:52Z</time>
      </trkpt>
      <trkpt lat="45.11694" lon="6.06044">
        <ele>1741</ele>
        <time>2011-09-10T15:26:56Z</time>
      </trkpt>
      <trkpt lat="45.11714" lon="6.06025">
        <ele>1737</ele>
        <time>2011-09-10T15:27:21Z</time>
      </trkpt>
      <trkpt lat="45.11716" lon="6.06018">
        <ele>1734</ele>
        <time>2011-09-10T15:27:32Z</time>
      </trkpt>
      <trkpt lat="45.11722" lon="6.0602">
        <ele>1733</ele>
        <time>2011-09-10T15:27:35Z</time>
      </trkpt>
      <trkpt lat="45.11724" lon="6.0602">
        <ele>1733</ele>
        <time>2011-09-10T15:27:37Z</time>
      </trkpt>
      <trkpt lat="45.11739" lon="6.06001">
        <ele>1730</ele>
        <time>2011-09-10T15:27:47Z</time>
      </trkpt>
      <trkpt lat="45.11744" lon="6.06005">
        <ele>1730</ele>
        <time>2011-09-10T15:27:49Z</time>
      </trkpt>
      <trkpt lat="45.11748" lon="6.0601">
        <ele>1730</ele>
        <time>2011-09-10T15:27:51Z</time>
      </trkpt>
      <trkpt lat="45.11755" lon="6.06008">
        <ele>1730</ele>
        <time>2011-09-10T15:27:55Z</time>
      </trkpt>
      <trkpt lat="45.11785" lon="6.05999">
        <ele>1730</ele>
        <time>2011-09-10T15:28:22Z</time>
      </trkpt>
      <trkpt lat="45.11804" lon="6.05928">
        <ele>1730</ele>
        <time>2011-09-10T15:28:48Z</time>
      </trkpt>
      <trkpt lat="45.11815" lon="6.05915">
        <ele>1730</ele>
        <time>2011-09-10T15:28:59Z</time>
      </trkpt>
      <trkpt lat="45.11795" lon="6.05922">
        <ele>1706</ele>
        <time>2011-09-10T15:29:04Z</time>
      </trkpt>
      <trkpt lat="45.11785" lon="6.05885">
        <ele>1707</ele>
        <time>2011-09-10T15:29:22Z</time>
      </trkpt>
      <trkpt lat="45.11776" lon="6.05842">
        <ele>1707</ele>
        <time>2011-09-10T15:29:51Z</time>
      </trkpt>
      <trkpt lat="45.11782" lon="6.05829">
        <ele>1707</ele>
        <time>2011-09-10T15:29:59Z</time>
      </trkpt>
      <trkpt lat="45.11793" lon="6.05823">
        <ele>1706</ele>
        <time>2011-09-10T15:30:06Z</time>
      </trkpt>
      <trkpt lat="45.11797" lon="6.05817">
        <ele>1706</ele>
        <time>2011-09-10T15:30:09Z</time>
      </trkpt>
      <trkpt lat="45.11804" lon="6.05814">
        <ele>1706</ele>
        <time>2011-09-10T15:30:17Z</time>
      </trkpt>
      <trkpt lat="45.1181" lon="6.05808">
        <ele>1706</ele>
        <time>2011-09-10T15:30:22Z</time>
      </trkpt>
      <trkpt lat="45.11812" lon="6.05802">
        <ele>1705</ele>
        <time>2011-09-10T15:30:27Z</time>
      </trkpt>
      <trkpt lat="45.11825" lon="6.05793">
        <ele>1704</ele>
        <time>2011-09-10T15:30:40Z</time>
      </trkpt>
      <trkpt lat="45.11823" lon="6.05789">
        <ele>1704</ele>
        <time>2011-09-10T15:30:44Z</time>
      </trkpt>
      <trkpt lat="45.11815" lon="6.05789">
        <ele>1704</ele>
        <time>2011-09-10T15:30:48Z</time>
      </trkpt>
      <trkpt lat="45.11806" lon="6.05782">
        <ele>1694</ele>
        <time>2011-09-10T15:31:01Z</time>
      </trkpt>
      <trkpt lat="45.11804" lon="6.05791">
        <ele>1690</ele>
        <time>2011-09-10T15:32:02Z</time>
      </trkpt>
      <trkpt lat="45.1178" lon="6.05823">
        <ele>1623</ele>
        <time>2011-09-10T15:32:29Z</time>
      </trkpt>
      <trkpt lat="45.11785" lon="6.05821">
        <ele>1623</ele>
        <time>2011-09-10T15:33:04Z</time>
      </trkpt>
      <trkpt lat="45.1178" lon="6.05812">
        <ele>1623</ele>
        <time>2011-09-10T15:33:25Z</time>
      </trkpt>
      <trkpt lat="45.1178" lon="6.05802">
        <ele>1622</ele>
        <time>2011-09-10T15:33:48Z</time>
      </trkpt>
      <trkpt lat="45.11791" lon="6.05799">
        <ele>1622</ele>
        <time>2011-09-10T15:33:53Z</time>
      </trkpt>
      <trkpt lat="45.11797" lon="6.05784">
        <ele>1622</ele>
        <time>2011-09-10T15:34:04Z</time>
      </trkpt>
      <trkpt lat="45.11812" lon="6.05774">
        <ele>1623</ele>
        <time>2011-09-10T15:34:18Z</time>
      </trkpt>
      <trkpt lat="45.1181" lon="6.05765">
        <ele>1623</ele>
        <time>2011-09-10T15:34:25Z</time>
      </trkpt>
      <trkpt lat="45.1181" lon="6.05763">
        <ele>1623</ele>
        <time>2011-09-10T15:34:27Z</time>
      </trkpt>
      <trkpt lat="45.11808" lon="6.0575">
        <ele>1621</ele>
        <time>2011-09-10T15:34:35Z</time>
      </trkpt>
      <trkpt lat="45.11823" lon="6.0575">
        <ele>1620</ele>
        <time>2011-09-10T15:34:41Z</time>
      </trkpt>
      <trkpt lat="45.11868" lon="6.05778">
        <ele>1620</ele>
        <time>2011-09-10T15:35:01Z</time>
      </trkpt>
      <trkpt lat="45.11907" lon="6.05797">
        <ele>1620</ele>
        <time>2011-09-10T15:35:29Z</time>
      </trkpt>
      <trkpt lat="45.11802" lon="6.05572">
        <ele>1620</ele>
        <time>2011-09-10T15:36:18Z</time>
      </trkpt>
      <trkpt lat="45.11823" lon="6.0557">
        <ele>1620</ele>
        <time>2011-09-10T15:36:32Z</time>
      </trkpt>
      <trkpt lat="45.11782" lon="6.05591">
        <ele>1532</ele>
        <time>2011-09-10T15:36:49Z</time>
      </trkpt>
      <trkpt lat="45.11778" lon="6.05608">
        <ele>1533</ele>
        <time>2011-09-10T15:37:08Z</time>
      </trkpt>
      <trkpt lat="45.11774" lon="6.05598">
        <ele>1533</ele>
        <time>2011-09-10T15:38:00Z</time>
      </trkpt>
      <trkpt lat="45.11765" lon="6.05574">
        <ele>1533</ele>
        <time>2011-09-10T15:40:24Z</time>
      </trkpt>
      <trkpt lat="45.11767" lon="6.05568">
        <ele>1533</ele>
        <time>2011-09-10T15:40:26Z</time>
      </trkpt>
      <trkpt lat="45.11787" lon="6.05563">
        <ele>1533</ele>
        <time>2011-09-10T15:40:29Z</time>
      </trkpt>
      <trkpt lat="45.1183" lon="6.05533">
        <ele>1533</ele>
        <time>2011-09-10T15:40:48Z</time>
      </trkpt>
      <trkpt lat="45.11858" lon="6.05503">
        <ele>1533</ele>
        <time>2011-09-10T15:41:10Z</time>
      </trkpt>
      <trkpt lat="45.1186" lon="6.05497">
        <ele>1533</ele>
        <time>2011-09-10T15:41:25Z</time>
      </trkpt>
      <trkpt lat="45.11875" lon="6.05486">
        <ele>1533</ele>
        <time>2011-09-10T15:42:04Z</time>
      </trkpt>
      <trkpt lat="45.11834" lon="6.05486">
        <ele>1533</ele>
        <time>2011-09-10T15:42:38Z</time>
      </trkpt>
      <trkpt lat="45.11875" lon="6.05469">
        <ele>1537</ele>
        <time>2011-09-10T15:44:30Z</time>
      </trkpt>
      <trkpt lat="45.11879" lon="6.0546">
        <ele>1534</ele>
        <time>2011-09-10T15:44:35Z</time>
      </trkpt>
      <trkpt lat="45.11862" lon="6.05394">
        <ele>1412</ele>
        <time>2011-09-10T15:45:14Z</time>
      </trkpt>
      <trkpt lat="45.11847" lon="6.05394">
        <ele>1408</ele>
        <time>2011-09-10T15:45:27Z</time>
      </trkpt>
      <trkpt lat="45.11885" lon="6.05293">
        <ele>1407</ele>
        <time>2011-09-10T15:45:54Z</time>
      </trkpt>
      <trkpt lat="45.11905" lon="6.05319">
        <ele>1407</ele>
        <time>2011-09-10T15:45:59Z</time>
      </trkpt>
      <trkpt lat="45.11924" lon="6.05327">
        <ele>1407</ele>
        <time>2011-09-10T15:46:11Z</time>
      </trkpt>
      <trkpt lat="45.11937" lon="6.05312">
        <ele>1407</ele>
        <time>2011-09-10T15:46:21Z</time>
      </trkpt>
      <trkpt lat="45.11945" lon="6.05194">
        <ele>1407</ele>
        <time>2011-09-10T15:46:47Z</time>
      </trkpt>
      <trkpt lat="45.11954" lon="6.05147">
        <ele>1407</ele>
        <time>2011-09-10T15:47:24Z</time>
      </trkpt>
      <trkpt lat="45.11945" lon="6.05151">
        <ele>1406</ele>
        <time>2011-09-10T15:48:35Z</time>
      </trkpt>
      <trkpt lat="45.11935" lon="6.05154">
        <ele>1406</ele>
        <time>2011-09-10T15:49:34Z</time>
      </trkpt>
      <trkpt lat="45.11945" lon="6.05149">
        <ele>1406</ele>
        <time>2011-09-10T15:50:52Z</time>
      </trkpt>
      <trkpt lat="45.11954" lon="6.05154">
        <ele>1407</ele>
        <time>2011-09-10T15:51:04Z</time>
      </trkpt>
      <trkpt lat="45.11961" lon="6.05145">
        <ele>1406</ele>
        <time>2011-09-10T15:51:13Z</time>
      </trkpt>
      <trkpt lat="45.11982" lon="6.05175">
        <ele>1399</ele>
        <time>2011-09-10T15:51:33Z</time>
      </trkpt>
      <trkpt lat="45.11982" lon="6.05179">
        <ele>1395</ele>
        <time>2011-09-10T15:52:08Z</time>
      </trkpt>
      <trkpt lat="45.11991" lon="6.05179">
        <ele>1432</ele>
        <time>2011-09-10T15:53:06Z</time>
      </trkpt>
      <trkpt lat="45.11982" lon="6.05181">
        <ele>1392</ele>
        <time>2011-09-10T15:55:19Z</time>
      </trkpt>
      <trkpt lat="45.11976" lon="6.05164">
        <ele>1392</ele>
        <time>2011-09-10T15:56:26Z</time>
      </trkpt>
      <trkpt lat="45.11967" lon="6.0516">
        <ele>1391</ele>
        <time>2011-09-10T15:56:30Z</time>
      </trkpt>
      <trkpt lat="45.11967" lon="6.05156">
        <ele>1391</ele>
        <time>2011-09-10T15:56:34Z</time>
      </trkpt>
      <trkpt lat="45.11941" lon="6.05151">
        <ele>1391</ele>
        <time>2011-09-10T15:57:02Z</time>
      </trkpt>
      <trkpt lat="45.11729" lon="6.05151">
        <ele>1391</ele>
        <time>2011-09-10T15:58:30Z</time>
      </trkpt>
      <trkpt lat="45.11729" lon="6.05147">
        <ele>1391</ele>
        <time>2011-09-10T15:58:31Z</time>
      </trkpt>
      <trkpt lat="45.11742" lon="6.05154">
        <ele>1388</ele>
        <time>2011-09-10T15:58:36Z</time>
      </trkpt>
      <trkpt lat="45.11733" lon="6.05141">
        <ele>1388</ele>
        <time>2011-09-10T15:58:40Z</time>
      </trkpt>
      <trkpt lat="45.11669" lon="6.05134">
        <ele>1324</ele>
        <time>2011-09-10T15:59:30Z</time>
      </trkpt>
      <trkpt lat="45.11705" lon="6.05038">
        <ele>1318</ele>
        <time>2011-09-10T16:00:12Z</time>
      </trkpt>
      <trkpt lat="45.11673" lon="6.05018">
        <ele>1314</ele>
        <time>2011-09-10T16:00:51Z</time>
      </trkpt>
      <trkpt lat="45.11658" lon="6.05016">
        <ele>1308</ele>
        <time>2011-09-10T16:01:07Z</time>
      </trkpt>
      <trkpt lat="45.11671" lon="6.05001">
        <ele>1244</ele>
        <time>2011-09-10T16:01:18Z</time>
      </trkpt>
      <trkpt lat="45.11667" lon="6.04971">
        <ele>1248</ele>
        <time>2011-09-10T16:01:34Z</time>
      </trkpt>
      <trkpt lat="45.11664" lon="6.04958">
        <ele>1246</ele>
        <time>2011-09-10T16:01:40Z</time>
      </trkpt>
      <trkpt lat="45.11677" lon="6.04937">
        <ele>1242</ele>
        <time>2011-09-10T16:01:50Z</time>
      </trkpt>
      <trkpt lat="45.11673" lon="6.0493">
        <ele>1240</ele>
        <time>2011-09-10T16:01:54Z</time>
      </trkpt>
      <trkpt lat="45.11667" lon="6.04922">
        <ele>1236</ele>
        <time>2011-09-10T16:01:59Z</time>
      </trkpt>
      <trkpt lat="45.11658" lon="6.04913">
        <ele>1232</ele>
        <time>2011-09-10T16:02:16Z</time>
      </trkpt>
      <trkpt lat="45.11673" lon="6.04896">
        <ele>1225</ele>
        <time>2011-09-10T16:02:24Z</time>
      </trkpt>
      <trkpt lat="45.11671" lon="6.0489">
        <ele>1224</ele>
        <time>2011-09-10T16:02:28Z</time>
      </trkpt>
      <trkpt lat="45.11639" lon="6.04887">
        <ele>1219</ele>
        <time>2011-09-10T16:02:45Z</time>
      </trkpt>
      <trkpt lat="45.11636" lon="6.04881">
        <ele>1219</ele>
        <time>2011-09-10T16:02:52Z</time>
      </trkpt>
      <trkpt lat="45.1169" lon="6.04819">
        <ele>1214</ele>
        <time>2011-09-10T16:03:01Z</time>
      </trkpt>
      <trkpt lat="45.11699" lon="6.04778">
        <ele>1196</ele>
        <time>2011-09-10T16:03:13Z</time>
      </trkpt>
      <trkpt lat="45.11714" lon="6.04722">
        <ele>1179</ele>
        <time>2011-09-10T16:03:26Z</time>
      </trkpt>
      <trkpt lat="45.11724" lon="6.04664">
        <ele>1168</ele>
        <time>2011-09-10T16:03:41Z</time>
      </trkpt>
      <trkpt lat="45.11765" lon="6.04621">
        <ele>1161</ele>
        <time>2011-09-10T16:03:59Z</time>
      </trkpt>
      <trkpt lat="45.11767" lon="6.04628">
        <ele>1160</ele>
        <time>2011-09-10T16:04:18Z</time>
      </trkpt>
      <trkpt lat="45.1177" lon="6.04624">
        <ele>1159</ele>
        <time>2011-09-10T16:04:48Z</time>
      </trkpt>
      <trkpt lat="45.11782" lon="6.0463">
        <ele>1157</ele>
        <time>2011-09-10T16:05:01Z</time>
      </trkpt>
      <trkpt lat="45.11789" lon="6.04636">
        <ele>1157</ele>
        <time>2011-09-10T16:05:11Z</time>
      </trkpt>
      <trkpt lat="45.11797" lon="6.04636">
        <ele>1155</ele>
        <time>2011-09-10T16:05:16Z</time>
      </trkpt>
      <trkpt lat="45.11817" lon="6.04619">
        <ele>1148</ele>
        <time>2011-09-10T16:05:27Z</time>
      </trkpt>
      <trkpt lat="45.11853" lon="6.04602">
        <ele>1144</ele>
        <time>2011-09-10T16:05:37Z</time>
      </trkpt>
      <trkpt lat="45.11875" lon="6.04572">
        <ele>1136</ele>
        <time>2011-09-10T16:05:47Z</time>
      </trkpt>
      <trkpt lat="45.11883" lon="6.04566">
        <ele>1127</ele>
        <time>2011-09-10T16:05:57Z</time>
      </trkpt>
      <trkpt lat="45.1189" lon="6.04551">
        <ele>1122</ele>
        <time>2011-09-10T16:06:01Z</time>
      </trkpt>
      <trkpt lat="45.11905" lon="6.04525">
        <ele>1116</ele>
        <time>2011-09-10T16:06:07Z</time>
      </trkpt>
      <trkpt lat="45.11926" lon="6.04512">
        <ele>1112</ele>
        <time>2011-09-10T16:06:22Z</time>
      </trkpt>
      <trkpt lat="45.11945" lon="6.04506">
        <ele>1111</ele>
        <time>2011-09-10T16:06:34Z</time>
      </trkpt>
      <trkpt lat="45.11918" lon="6.04493">
        <ele>1111</ele>
        <time>2011-09-10T16:06:47Z</time>
      </trkpt>
      <trkpt lat="45.11913" lon="6.04486">
        <ele>1111</ele>
        <time>2011-09-10T16:06:58Z</time>
      </trkpt>
      <trkpt lat="45.11913" lon="6.04478">
        <ele>1109</ele>
        <time>2011-09-10T16:07:03Z</time>
      </trkpt>
      <trkpt lat="45.11918" lon="6.04465">
        <ele>1102</ele>
        <time>2011-09-10T16:07:18Z</time>
      </trkpt>
      <trkpt lat="45.11888" lon="6.04415">
        <ele>1101</ele>
        <time>2011-09-10T16:07:53Z</time>
      </trkpt>
      <trkpt lat="45.11905" lon="6.04426">
        <ele>1056</ele>
        <time>2011-09-10T16:07:59Z</time>
      </trkpt>
      <trkpt lat="45.11909" lon="6.04413">
        <ele>1072</ele>
        <time>2011-09-10T16:08:03Z</time>
      </trkpt>
      <trkpt lat="45.11911" lon="6.04385">
        <ele>1079</ele>
        <time>2011-09-10T16:08:16Z</time>
      </trkpt>
      <trkpt lat="45.11926" lon="6.04381">
        <ele>1077</ele>
        <time>2011-09-10T16:08:26Z</time>
      </trkpt>
      <trkpt lat="45.11926" lon="6.04375">
        <ele>1077</ele>
        <time>2011-09-10T16:08:41Z</time>
      </trkpt>
      <trkpt lat="45.11924" lon="6.04368">
        <ele>1077</ele>
        <time>2011-09-10T16:09:10Z</time>
      </trkpt>
      <trkpt lat="45.11915" lon="6.04381">
        <ele>1077</ele>
        <time>2011-09-10T16:09:14Z</time>
      </trkpt>
      <trkpt lat="45.11877" lon="6.04428">
        <ele>1072</ele>
        <time>2011-09-10T16:09:27Z</time>
      </trkpt>
      <trkpt lat="45.1181" lon="6.04497">
        <ele>1070</ele>
        <time>2011-09-10T16:10:25Z</time>
      </trkpt>
      <trkpt lat="45.11853" lon="6.04448">
        <ele>1033</ele>
        <time>2011-09-10T16:11:30Z</time>
      </trkpt>
      <trkpt lat="45.11866" lon="6.04454">
        <ele>1039</ele>
        <time>2011-09-10T16:11:38Z</time>
      </trkpt>
      <trkpt lat="45.11858" lon="6.04426">
        <ele>1073</ele>
        <time>2011-09-10T16:11:44Z</time>
      </trkpt>
      <trkpt lat="45.11858" lon="6.0443">
        <ele>1072</ele>
        <time>2011-09-10T16:11:46Z</time>
      </trkpt>
      <trkpt lat="45.11849" lon="6.04443">
        <ele>1071</ele>
        <time>2011-09-10T16:11:50Z</time>
      </trkpt>
      <trkpt lat="45.11806" lon="6.04465">
        <ele>1067</ele>
        <time>2011-09-10T16:12:05Z</time>
      </trkpt>
      <trkpt lat="45.11806" lon="6.04467">
        <ele>1068</ele>
        <time>2011-09-10T16:12:18Z</time>
      </trkpt>
      <trkpt lat="45.11806" lon="6.04467">
        <ele>1068</ele>
        <time>2011-09-10T16:12:34Z</time>
      </trkpt>
      <trkpt lat="45.11787" lon="6.04396">
        <ele>1070</ele>
        <time>2011-09-10T16:13:08Z</time>
      </trkpt>
      <trkpt lat="45.11748" lon="6.04315">
        <ele>1071</ele>
        <time>2011-09-10T16:13:54Z</time>
      </trkpt>
      <trkpt lat="45.11709" lon="6.04293">
        <ele>1071</ele>
        <time>2011-09-10T16:14:28Z</time>
      </trkpt>
      <trkpt lat="45.11724" lon="6.04289">
        <ele>1076</ele>
        <time>2011-09-10T16:14:35Z</time>
      </trkpt>
      <trkpt lat="45.11724" lon="6.04285">
        <ele>1077</ele>
        <time>2011-09-10T16:14:40Z</time>
      </trkpt>
      <trkpt lat="45.11718" lon="6.04278">
        <ele>1078</ele>
        <time>2011-09-10T16:15:03Z</time>
      </trkpt>
      <trkpt lat="45.11724" lon="6.04304">
        <ele>1077</ele>
        <time>2011-09-10T16:15:42Z</time>
      </trkpt>
      <trkpt lat="45.11686" lon="6.04295">
        <ele>1077</ele>
        <time>2011-09-10T16:16:15Z</time>
      </trkpt>
      <trkpt lat="45.11688" lon="6.04293">
        <ele>1092</ele>
        <time>2011-09-10T16:16:51Z</time>
      </trkpt>
      <trkpt lat="45.11744" lon="6.043">
        <ele>1088</ele>
        <time>2011-09-10T16:17:19Z</time>
      </trkpt>
      <trkpt lat="45.11748" lon="6.04304">
        <ele>1088</ele>
        <time>2011-09-10T16:17:21Z</time>
      </trkpt>
      <trkpt lat="45.11825" lon="6.0442">
        <ele>1080</ele>
        <time>2011-09-10T16:17:34Z</time>
      </trkpt>
      <trkpt lat="45.11851" lon="6.04497">
        <ele>1070</ele>
        <time>2011-09-10T16:17:51Z</time>
      </trkpt>
      <trkpt lat="45.11849" lon="6.04491">
        <ele>1070</ele>
        <time>2011-09-10T16:17:59Z</time>
      </trkpt>
      <trkpt lat="45.11847" lon="6.04475">
        <ele>1061</ele>
        <time>2011-09-10T16:18:37Z</time>
      </trkpt>
      <trkpt lat="45.11849" lon="6.04473">
        <ele>1060</ele>
        <time>2011-09-10T16:18:40Z</time>
      </trkpt>
      <trkpt lat="45.11862" lon="6.04456">
        <ele>1059</ele>
        <time>2011-09-10T16:18:53Z</time>
      </trkpt>
      <trkpt lat="45.11875" lon="6.04439">
        <ele>1060</ele>
        <time>2011-09-10T16:19:03Z</time>
      </trkpt>
      <trkpt lat="45.11888" lon="6.04418">
        <ele>1056</ele>
        <time>2011-09-10T16:19:31Z</time>
      </trkpt>
      <trkpt lat="45.11913" lon="6.04456">
        <ele>988</ele>
        <time>2011-09-10T16:21:14Z</time>
      </trkpt>
      <trkpt lat="45.11877" lon="6.04452">
        <ele>1037</ele>
        <time>2011-09-10T16:21:30Z</time>
      </trkpt>
      <trkpt lat="45.11967" lon="6.04548">
        <ele>813</ele>
        <time>2011-09-10T16:21:48Z</time>
      </trkpt>
      <trkpt lat="45.1189" lon="6.04418">
        <ele>1057</ele>
        <time>2011-09-10T16:23:03Z</time>
      </trkpt>
      <trkpt lat="45.11883" lon="6.0443">
        <ele>1057</ele>
        <time>2011-09-10T16:23:19Z</time>
      </trkpt>
      <trkpt lat="45.1189" lon="6.04409">
        <ele>1060</ele>
        <time>2011-09-10T16:23:43Z</time>
      </trkpt>
      <trkpt lat="45.11888" lon="6.04422">
        <ele>1052</ele>
        <time>2011-09-10T16:24:03Z</time>
      </trkpt>
      <trkpt lat="45.11885" lon="6.04424">
        <ele>1052</ele>
        <time>2011-09-10T16:24:05Z</time>
      </trkpt>
      <trkpt lat="45.11883" lon="6.04418">
        <ele>1053</ele>
        <time>2011-09-10T16:24:09Z</time>
      </trkpt>
      <trkpt lat="45.11896" lon="6.04385">
        <ele>1049</ele>
        <time>2011-09-10T16:24:16Z</time>
      </trkpt>
      <trkpt lat="45.11922" lon="6.04282">
        <ele>1047</ele>
        <time>2011-09-10T16:24:41Z</time>
      </trkpt>
      <trkpt lat="45.11933" lon="6.04265">
        <ele>1048</ele>
        <time>2011-09-10T16:24:46Z</time>
      </trkpt>
      <trkpt lat="45.11954" lon="6.04267">
        <ele>1047</ele>
        <time>2011-09-10T16:24:50Z</time>
      </trkpt>
      <trkpt lat="45.1198" lon="6.04265">
        <ele>1047</ele>
        <time>2011-09-10T16:24:55Z</time>
      </trkpt>
      <trkpt lat="45.12119" lon="6.04244">
        <ele>1046</ele>
        <time>2011-09-10T16:25:19Z</time>
      </trkpt>
      <trkpt lat="45.12139" lon="6.04244">
        <ele>1046</ele>
        <time>2011-09-10T16:25:22Z</time>
      </trkpt>
      <trkpt lat="45.12154" lon="6.04252">
        <ele>1046</ele>
        <time>2011-09-10T16:25:24Z</time>
      </trkpt>
      <trkpt lat="45.12207" lon="6.04321">
        <ele>1041</ele>
        <time>2011-09-10T16:25:33Z</time>
      </trkpt>
      <trkpt lat="45.12231" lon="6.04351">
        <ele>1041</ele>
        <time>2011-09-10T16:25:38Z</time>
      </trkpt>
      <trkpt lat="45.12248" lon="6.0433">
        <ele>1041</ele>
        <time>2011-09-10T16:25:46Z</time>
      </trkpt>
      <trkpt lat="45.12257" lon="6.04295">
        <ele>1041</ele>
        <time>2011-09-10T16:25:53Z</time>
      </trkpt>
      <trkpt lat="45.12164" lon="6.04154">
        <ele>1041</ele>
        <time>2011-09-10T16:26:11Z</time>
      </trkpt>
      <trkpt lat="45.12119" lon="6.04098">
        <ele>1041</ele>
        <time>2011-09-10T16:26:20Z</time>
      </trkpt>
      <trkpt lat="45.12076" lon="6.04139">
        <ele>1037</ele>
        <time>2011-09-10T16:26:29Z</time>
      </trkpt>
      <trkpt lat="45.12029" lon="6.04117">
        <ele>1035</ele>
        <time>2011-09-10T16:26:31Z</time>
      </trkpt>
      <trkpt lat="45.11963" lon="6.04115">
        <ele>1035</ele>
        <time>2011-09-10T16:26:36Z</time>
      </trkpt>
      <trkpt lat="45.11967" lon="6.04098">
        <ele>1035</ele>
        <time>2011-09-10T16:26:41Z</time>
      </trkpt>
      <trkpt lat="45.11971" lon="6.04079">
        <ele>1035</ele>
        <time>2011-09-10T16:26:45Z</time>
      </trkpt>
      <trkpt lat="45.1201" lon="6.04061">
        <ele>1030</ele>
        <time>2011-09-10T16:27:00Z</time>
      </trkpt>
      <trkpt lat="45.12053" lon="6.04089">
        <ele>1028</ele>
        <time>2011-09-10T16:27:10Z</time>
      </trkpt>
      <trkpt lat="45.12053" lon="6.04087">
        <ele>1028</ele>
        <time>2011-09-10T16:27:12Z</time>
      </trkpt>
      <trkpt lat="45.12059" lon="6.04068">
        <ele>1028</ele>
        <time>2011-09-10T16:27:30Z</time>
      </trkpt>
      <trkpt lat="45.12033" lon="6.04059">
        <ele>1023</ele>
        <time>2011-09-10T16:27:50Z</time>
      </trkpt>
      <trkpt lat="45.12036" lon="6.04057">
        <ele>1023</ele>
        <time>2011-09-10T16:28:07Z</time>
      </trkpt>
      <trkpt lat="45.12081" lon="6.04068">
        <ele>1019</ele>
        <time>2011-09-10T16:28:32Z</time>
      </trkpt>
      <trkpt lat="45.12089" lon="6.04064">
        <ele>1019</ele>
        <time>2011-09-10T16:28:40Z</time>
      </trkpt>
      <trkpt lat="45.121" lon="6.04001">
        <ele>1011</ele>
        <time>2011-09-10T16:29:13Z</time>
      </trkpt>
      <trkpt lat="45.12115" lon="6.03943">
        <ele>1005</ele>
        <time>2011-09-10T16:29:43Z</time>
      </trkpt>
      <trkpt lat="45.12151" lon="6.03879">
        <ele>1001</ele>
        <time>2011-09-10T16:30:18Z</time>
      </trkpt>
      <trkpt lat="45.12076" lon="6.03806">
        <ele>993</ele>
        <time>2011-09-10T16:30:31Z</time>
      </trkpt>
      <trkpt lat="45.12109" lon="6.0384">
        <ele>913</ele>
        <time>2011-09-10T16:30:34Z</time>
      </trkpt>
      <trkpt lat="45.12089" lon="6.03778">
        <ele>937</ele>
        <time>2011-09-10T16:30:54Z</time>
      </trkpt>
      <trkpt lat="45.12094" lon="6.03782">
        <ele>936</ele>
        <time>2011-09-10T16:31:23Z</time>
      </trkpt>
      <trkpt lat="45.12102" lon="6.03767">
        <ele>936</ele>
        <time>2011-09-10T16:31:53Z</time>
      </trkpt>
      <trkpt lat="45.12102" lon="6.03761">
        <ele>936</ele>
        <time>2011-09-10T16:32:22Z</time>
      </trkpt>
      <trkpt lat="45.12134" lon="6.03692">
        <ele>936</ele>
        <time>2011-09-10T16:33:42Z</time>
      </trkpt>
      <trkpt lat="45.12136" lon="6.03692">
        <ele>936</ele>
        <time>2011-09-10T16:33:47Z</time>
      </trkpt>
      <trkpt lat="45.12109" lon="6.03718">
        <ele>928</ele>
        <time>2011-09-10T16:34:03Z</time>
      </trkpt>
      <trkpt lat="45.12119" lon="6.03692">
        <ele>922</ele>
        <time>2011-09-10T16:34:14Z</time>
      </trkpt>
      <trkpt lat="45.12121" lon="6.03671">
        <ele>921</ele>
        <time>2011-09-10T16:34:23Z</time>
      </trkpt>
      <trkpt lat="45.12121" lon="6.03667">
        <ele>921</ele>
        <time>2011-09-10T16:34:25Z</time>
      </trkpt>
      <trkpt lat="45.12126" lon="6.03682">
        <ele>921</ele>
        <time>2011-09-10T16:34:29Z</time>
      </trkpt>
      <trkpt lat="45.12128" lon="6.03675">
        <ele>921</ele>
        <time>2011-09-10T16:34:40Z</time>
      </trkpt>
      <trkpt lat="45.12128" lon="6.03669">
        <ele>921</ele>
        <time>2011-09-10T16:34:48Z</time>
      </trkpt>
      <trkpt lat="45.12132" lon="6.03634">
        <ele>920</ele>
        <time>2011-09-10T16:35:09Z</time>
      </trkpt>
      <trkpt lat="45.12141" lon="6.03626">
        <ele>923</ele>
        <time>2011-09-10T16:36:38Z</time>
      </trkpt>
      <trkpt lat="45.12182" lon="6.03624">
        <ele>922</ele>
        <time>2011-09-10T16:37:05Z</time>
      </trkpt>
      <trkpt lat="45.12227" lon="6.03626">
        <ele>920</ele>
        <time>2011-09-10T16:37:45Z</time>
      </trkpt>
      <trkpt lat="45.12235" lon="6.03621">
        <ele>915</ele>
        <time>2011-09-10T16:38:11Z</time>
      </trkpt>
      <trkpt lat="45.12145" lon="6.03559">
        <ele>911</ele>
        <time>2011-09-10T16:40:27Z</time>
      </trkpt>
      <trkpt lat="45.12143" lon="6.03555">
        <ele>911</ele>
        <time>2011-09-10T16:40:29Z</time>
      </trkpt>
      <trkpt lat="45.12194" lon="6.03561">
        <ele>911</ele>
        <time>2011-09-10T16:40:51Z</time>
      </trkpt>
      <trkpt lat="45.123" lon="6.03613">
        <ele>911</ele>
        <time>2011-09-10T16:40:53Z</time>
      </trkpt>
      <trkpt lat="45.12205" lon="6.03581">
        <ele>823</ele>
        <time>2011-09-10T16:41:07Z</time>
      </trkpt>
      <trkpt lat="45.12205" lon="6.03581">
        <ele>820</ele>
        <time>2011-09-10T16:41:10Z</time>
      </trkpt>
    </trkseg>
  </trk>
</gpx>